Time,TemperatureF,DewpointF,PressureIn,WindDirection,WindDirectionDegrees,WindSpeedMPH,WindSpeedGustMPH,Humidity,HourlyPrecipIn,Conditions,Clouds,dailyrainin,SoftwareType,DateUTC
2013-01-01 00:01:00,9.9,3.0,30.09,North,4,3.0,5.0,73,0.00,,,0.00,Wunderground v.1.15,2013-01-01 06:01:00,
2013-01-01 00:04:00,9.9,3.0,30.09,NNE,18,5.0,5.0,73,0.00,,,0.00,Wunderground v.1.15,2013-01-01 06:04:00,
2013-01-01 00:05:00,9.9,3.0,30.09,North,11,6.0,6.0,73,0.00,,,0.00,Wunderground v.1.15,2013-01-01 06:05:00,
2013-01-01 00:06:00,9.9,3.0,30.09,North,3,5.0,6.0,73,0.00,,,0.00,Wunderground v.1.15,2013-01-01 06:06:00,
2013-01-01 00:10:00,9.9,3.0,30.10,North,0,6.0,6.0,73,0.00,,,0.00,Wunderground v.1.15,2013-01-01 06:10:00,
2013-01-01 00:11:00,9.9,3.0,30.10,North,7,4.0,6.0,73,0.00,,,0.00,Wunderground v.1.15,2013-01-01 06:11:00,
2013-01-01 00:14:00,9.9,3.0,30.10,North,0,7.0,7.0,73,0.00,,,0.00,Wunderground v.1.15,2013-01-01 06:14:00,
2013-01-01 00:15:00,9.9,3.0,30.10,North,0,3.0,7.0,73,0.00,,,0.00,Wunderground v.1.15,2013-01-01 06:15:00,
2013-01-01 00:19:00,9.7,2.8,30.10,North,7,4.0,5.0,73,0.00,,,0.00,Wunderground v.1.15,2013-01-01 06:19:00,
2013-01-01 00:20:00,9.7,2.8,30.10,North,0,4.0,5.0,73,0.00,,,0.00,Wunderground v.1.15,2013-01-01 06:20:00,
2013-01-01 00:25:00,9.7,2.8,30.10,North,9,9.0,9.0,73,0.00,,,0.00,Wunderground v.1.15,2013-01-01 06:25:00,
2013-01-01 00:26:00,9.7,2.8,30.10,North,5,6.0,9.0,73,0.00,,,0.00,Wunderground v.1.15,2013-01-01 06:26:00,
2013-01-01 00:31:00,9.5,2.6,30.10,North,2,4.0,4.0,73,0.00,,,0.00,Wunderground v.1.15,2013-01-01 06:31:00,
2013-01-01 00:35:00,9.5,2.6,30.10,North,6,3.0,4.0,73,0.00,,,0.00,Wunderground v.1.15,2013-01-01 06:35:00,
2013-01-01 00:36:00,9.5,2.6,30.10,North,8,2.0,4.0,73,0.00,,,0.00,Wunderground v.1.15,2013-01-01 06:36:00,
2013-01-01 00:40:00,9.3,2.7,30.11,North,2,3.0,4.0,74,0.00,,,0.00,Wunderground v.1.15,2013-01-01 06:40:00,
2013-01-01 00:41:00,9.3,2.7,30.11,North,2,2.0,4.0,74,0.00,,,0.00,Wunderground v.1.15,2013-01-01 06:41:00,
2013-01-01 00:46:00,9.3,2.7,30.11,North,0,5.0,5.0,74,0.00,,,0.00,Wunderground v.1.15,2013-01-01 06:46:00,
2013-01-01 00:51:00,9.2,2.6,30.11,North,7,4.0,6.0,74,0.00,,,0.00,Wunderground v.1.15,2013-01-01 06:51:00,
2013-01-01 00:54:00,9.2,2.6,30.11,NNE,26,5.0,6.0,74,0.00,,,0.00,Wunderground v.1.15,2013-01-01 06:54:00,
2013-01-01 00:59:00,9.2,2.6,30.11,North,11,4.0,4.0,74,0.00,,,0.00,Wunderground v.1.15,2013-01-01 06:59:00,
2013-01-01 01:00:00,9.2,2.6,30.11,North,11,3.0,4.0,74,0.00,,,0.00,Wunderground v.1.15,2013-01-01 07:00:00,
2013-01-01 01:01:00,9.2,2.6,30.11,NNE,13,3.0,4.0,74,0.00,,,0.00,Wunderground v.1.15,2013-01-01 07:01:00,
2013-01-01 01:04:00,9.2,2.6,30.11,North,0,6.0,6.0,74,0.00,,,0.00,Wunderground v.1.15,2013-01-01 07:04:00,
2013-01-01 01:05:00,9.2,2.6,30.11,North,6,4.0,6.0,74,0.00,,,0.00,Wunderground v.1.15,2013-01-01 07:05:00,
2013-01-01 01:10:00,9.2,2.6,30.10,North,6,4.0,6.0,74,0.00,,,0.00,Wunderground v.1.15,2013-01-01 07:10:00,
2013-01-01 01:11:00,9.2,2.6,30.10,NNE,23,9.0,9.0,74,0.00,,,0.00,Wunderground v.1.15,2013-01-01 07:11:00,
2013-01-01 01:14:00,9.0,2.4,30.10,NNE,14,4.0,9.0,74,0.00,,,0.00,Wunderground v.1.15,2013-01-01 07:14:00,
2013-01-01 01:16:00,9.0,2.4,30.10,North,11,4.0,9.0,74,0.00,,,0.00,Wunderground v.1.15,2013-01-01 07:16:00,
2013-01-01 01:19:00,9.0,2.4,30.10,NNE,19,6.0,6.0,74,0.00,,,0.00,Wunderground v.1.15,2013-01-01 07:19:00,
2013-01-01 01:21:00,9.0,2.4,30.10,NNE,27,7.0,7.0,74,0.00,,,0.00,Wunderground v.1.15,2013-01-01 07:21:00,
2013-01-01 01:24:00,9.0,2.4,30.10,NNE,15,4.0,7.0,74,0.00,,,0.00,Wunderground v.1.15,2013-01-01 07:24:00,
2013-01-01 01:26:00,8.8,2.2,30.10,North,0,10.0,10.0,74,0.00,,,0.00,Wunderground v.1.15,2013-01-01 07:26:00,
2013-01-01 01:29:00,8.8,2.2,30.10,North,1,7.0,7.0,74,0.00,,,0.00,Wunderground v.1.15,2013-01-01 07:29:00,
2013-01-01 01:31:00,8.8,1.9,30.10,North,11,4.0,7.0,73,0.00,,,0.00,Wunderground v.1.15,2013-01-01 07:31:00,
2013-01-01 01:35:00,8.8,1.9,30.10,North,7,7.0,7.0,73,0.00,,,0.00,Wunderground v.1.15,2013-01-01 07:35:00,
2013-01-01 01:36:00,8.8,1.9,30.10,NNE,12,6.0,7.0,73,0.00,,,0.00,Wunderground v.1.15,2013-01-01 07:36:00,
2013-01-01 01:39:00,8.6,1.7,30.10,North,0,8.0,8.0,73,0.00,,,0.00,Wunderground v.1.15,2013-01-01 07:39:00,
2013-01-01 01:40:00,8.6,2.0,30.10,North,5,4.0,8.0,74,0.00,,,0.00,Wunderground v.1.15,2013-01-01 07:40:00,
2013-01-01 01:44:00,8.4,1.8,30.10,North,0,6.0,8.0,74,0.00,,,0.00,Wunderground v.1.15,2013-01-01 07:44:00,
2013-01-01 01:45:00,8.4,1.8,30.10,North,9,7.0,8.0,74,0.00,,,0.00,Wunderground v.1.15,2013-01-01 07:45:00,
2013-01-01 01:49:00,8.4,1.5,30.10,North,2,7.0,7.0,73,0.00,,,0.00,Wunderground v.1.15,2013-01-01 07:49:00,
2013-01-01 01:51:00,8.4,1.8,30.10,North,0,4.0,7.0,74,0.00,,,0.00,Wunderground v.1.15,2013-01-01 07:51:00,
2013-01-01 01:54:00,8.3,1.7,30.11,North,0,4.0,7.0,74,0.00,,,0.00,Wunderground v.1.15,2013-01-01 07:54:00,
2013-01-01 01:55:00,8.3,1.7,30.11,North,0,4.0,7.0,74,0.00,,,0.00,Wunderground v.1.15,2013-01-01 07:55:00,
2013-01-01 01:59:00,8.1,1.5,30.11,North,7,3.0,5.0,74,0.00,,,0.00,Wunderground v.1.15,2013-01-01 07:59:00,
2013-01-01 02:00:00,8.1,1.5,30.11,North,7,3.0,5.0,74,0.00,,,0.00,Wunderground v.1.15,2013-01-01 08:00:00,
2013-01-01 02:01:00,8.1,1.5,30.11,North,7,4.0,5.0,74,0.00,,,0.00,Wunderground v.1.15,2013-01-01 08:01:00,
2013-01-01 02:05:00,7.9,1.3,30.11,North,1,7.0,7.0,74,0.00,,,0.00,Wunderground v.1.15,2013-01-01 08:05:00,
2013-01-01 02:06:00,7.9,1.3,30.11,North,0,5.0,7.0,74,0.00,,,0.00,Wunderground v.1.15,2013-01-01 08:06:00,
2013-01-01 02:10:00,7.7,1.1,30.12,North,0,3.0,6.0,74,0.00,,,0.00,Wunderground v.1.15,2013-01-01 08:10:00,
2013-01-01 02:11:00,7.7,1.4,30.12,North,0,6.0,7.0,75,0.00,,,0.00,Wunderground v.1.15,2013-01-01 08:11:00,
2013-01-01 02:15:00,7.7,1.4,30.12,North,5,9.0,12.0,75,0.00,,,0.00,Wunderground v.1.15,2013-01-01 08:15:00,
2013-01-01 02:16:00,7.7,1.4,30.12,NNE,13,4.0,12.0,75,0.00,,,0.00,Wunderground v.1.15,2013-01-01 08:16:00,
2013-01-01 02:17:00,7.7,1.4,30.12,North,4,6.0,12.0,75,0.00,,,0.00,Wunderground v.1.15,2013-01-01 08:17:00,
2013-01-01 02:19:00,7.7,1.4,30.12,North,6,6.0,8.0,75,0.00,,,0.00,Wunderground v.1.15,2013-01-01 08:19:00,
2013-01-01 02:20:00,7.7,1.4,30.12,North,0,7.0,8.0,75,0.00,,,0.00,Wunderground v.1.15,2013-01-01 08:20:00,
2013-01-01 02:21:00,7.7,1.4,30.12,North,0,8.0,9.0,75,0.00,,,0.00,Wunderground v.1.15,2013-01-01 08:21:00,
2013-01-01 02:24:00,7.6,1.3,30.12,North,0,6.0,9.0,75,0.00,,,0.00,Wunderground v.1.15,2013-01-01 08:24:00,
2013-01-01 02:25:00,7.6,1.3,30.12,North,0,5.0,9.0,75,0.00,,,0.00,Wunderground v.1.15,2013-01-01 08:25:00,
2013-01-01 02:27:00,7.6,1.3,30.12,North,0,5.0,10.0,75,0.00,,,0.00,Wunderground v.1.15,2013-01-01 08:27:00,
2013-01-01 02:30:00,7.6,1.3,30.12,North,4,5.0,7.0,75,0.00,,,0.00,Wunderground v.1.15,2013-01-01 08:30:00,
2013-01-01 02:34:00,7.4,1.1,30.12,North,1,6.0,9.0,75,0.00,,,0.00,Wunderground v.1.15,2013-01-01 08:34:00,
2013-01-01 02:35:00,7.4,1.1,30.12,North,359,5.0,9.0,75,0.00,,,0.00,Wunderground v.1.15,2013-01-01 08:35:00,
2013-01-01 02:36:00,7.4,1.1,30.12,North,0,5.0,9.0,75,0.00,,,0.00,Wunderground v.1.15,2013-01-01 08:36:00,
2013-01-01 02:39:00,7.2,0.9,30.12,North,0,6.0,6.0,75,0.00,,,0.00,Wunderground v.1.15,2013-01-01 08:39:00,
2013-01-01 02:40:00,7.2,0.9,30.12,North,0,6.0,6.0,75,0.00,,,0.00,Wunderground v.1.15,2013-01-01 08:40:00,
2013-01-01 02:41:00,7.2,0.9,30.12,North,7,4.0,10.0,75,0.00,,,0.00,Wunderground v.1.15,2013-01-01 08:41:00,
2013-01-01 02:42:00,7.2,0.9,30.12,North,6,5.0,10.0,75,0.00,,,0.00,Wunderground v.1.15,2013-01-01 08:42:00,
2013-01-01 02:45:00,7.0,0.7,30.12,North,0,5.0,10.0,75,0.00,,,0.00,Wunderground v.1.15,2013-01-01 08:45:00,
2013-01-01 02:47:00,7.0,0.7,30.12,North,359,5.0,10.0,75,0.00,,,0.00,Wunderground v.1.15,2013-01-01 08:47:00,
2013-01-01 02:49:00,7.0,1.0,30.12,North,0,4.0,6.0,76,0.00,,,0.00,Wunderground v.1.15,2013-01-01 08:49:00,
2013-01-01 02:51:00,7.0,1.0,30.12,North,1,5.0,9.0,76,0.00,,,0.00,Wunderground v.1.15,2013-01-01 08:51:00,
2013-01-01 02:55:00,6.9,0.9,30.11,North,0,7.0,9.0,76,0.00,,,0.00,Wunderground v.1.15,2013-01-01 08:55:00,
2013-01-01 02:56:00,6.9,0.9,30.11,North,0,7.0,9.0,76,0.00,,,0.00,Wunderground v.1.15,2013-01-01 08:56:00,
2013-01-01 03:00:00,6.9,0.9,30.11,North,0,5.0,6.0,76,0.00,,,0.00,Wunderground v.1.15,2013-01-01 09:00:00,
2013-01-01 03:01:00,6.9,0.9,30.11,North,0,4.0,6.0,76,0.00,,,0.00,Wunderground v.1.15,2013-01-01 09:01:00,
2013-01-01 03:02:00,6.9,0.9,30.11,North,0,5.0,6.0,76,0.00,,,0.00,Wunderground v.1.15,2013-01-01 09:02:00,
2013-01-01 03:05:00,6.7,0.7,30.11,North,0,5.0,7.0,76,0.00,,,0.00,Wunderground v.1.15,2013-01-01 09:05:00,
2013-01-01 03:06:00,6.7,0.7,30.11,North,6,6.0,7.0,76,0.00,,,0.00,Wunderground v.1.15,2013-01-01 09:06:00,
2013-01-01 03:10:00,6.7,0.7,30.12,North,0,6.0,6.0,76,0.00,,,0.00,Wunderground v.1.15,2013-01-01 09:10:00,
2013-01-01 03:11:00,6.7,0.7,30.12,North,2,6.0,6.0,76,0.00,,,0.00,Wunderground v.1.15,2013-01-01 09:11:00,
2013-01-01 03:15:00,6.5,0.5,30.12,North,0,3.0,6.0,76,0.00,,,0.00,Wunderground v.1.15,2013-01-01 09:15:00,
2013-01-01 03:17:00,6.5,0.5,30.12,North,1,3.0,7.0,76,0.00,,,0.00,Wunderground v.1.15,2013-01-01 09:17:00,
2013-01-01 03:20:00,6.5,0.5,30.12,North,359,4.0,5.0,76,0.00,,,0.00,Wunderground v.1.15,2013-01-01 09:20:00,
2013-01-01 03:21:00,6.3,0.3,30.12,North,2,6.0,6.0,76,0.00,,,0.00,Wunderground v.1.15,2013-01-01 09:21:00,
2013-01-01 03:22:00,6.3,0.3,30.12,North,0,5.0,7.0,76,0.00,,,0.00,Wunderground v.1.15,2013-01-01 09:22:00,
2013-01-01 03:23:00,6.3,0.3,30.12,North,4,6.0,7.0,76,0.00,,,0.00,Wunderground v.1.15,2013-01-01 09:23:00,
2013-01-01 03:26:00,6.3,0.6,30.12,North,1,6.0,7.0,77,0.00,,,0.00,Wunderground v.1.15,2013-01-01 09:26:00,
2013-01-01 03:30:00,6.1,0.4,30.12,North,8,7.0,7.0,77,0.00,,,0.00,Wunderground v.1.15,2013-01-01 09:30:00,
2013-01-01 03:31:00,6.1,0.4,30.12,North,349,6.0,7.0,77,0.00,,,0.00,Wunderground v.1.15,2013-01-01 09:31:00,
2013-01-01 03:34:00,6.1,0.4,30.12,North,8,7.0,7.0,77,0.00,,,0.00,Wunderground v.1.15,2013-01-01 09:34:00,
2013-01-01 03:35:00,6.1,0.4,30.12,NNE,13,7.0,8.0,77,0.00,,,0.00,Wunderground v.1.15,2013-01-01 09:35:00,
2013-01-01 03:36:00,6.1,0.4,30.12,North,0,5.0,8.0,77,0.00,,,0.00,Wunderground v.1.15,2013-01-01 09:36:00,
2013-01-01 03:40:00,6.0,0.3,30.12,North,0,5.0,9.0,77,0.00,,,0.00,Wunderground v.1.15,2013-01-01 09:40:00,
2013-01-01 03:41:00,6.0,0.3,30.12,North,1,4.0,9.0,77,0.00,,,0.00,Wunderground v.1.15,2013-01-01 09:41:00,
2013-01-01 03:42:00,6.0,0.3,30.12,North,0,4.0,9.0,77,0.00,,,0.00,Wunderground v.1.15,2013-01-01 09:42:00,
2013-01-01 03:46:00,5.8,0.1,30.12,North,0,4.0,9.0,77,0.00,,,0.00,Wunderground v.1.15,2013-01-01 09:46:00,
2013-01-01 03:47:00,5.8,0.1,30.12,North,0,5.0,9.0,77,0.00,,,0.00,Wunderground v.1.15,2013-01-01 09:47:00,
2013-01-01 03:49:00,5.8,0.4,30.12,North,0,6.0,6.0,78,0.00,,,0.00,Wunderground v.1.15,2013-01-01 09:49:00,
2013-01-01 03:50:00,5.8,0.4,30.12,North,0,7.0,7.0,78,0.00,,,0.00,Wunderground v.1.15,2013-01-01 09:50:00,
2013-01-01 03:51:00,5.8,0.1,30.12,North,0,5.0,7.0,77,0.00,,,0.00,Wunderground v.1.15,2013-01-01 09:51:00,
2013-01-01 03:54:00,5.8,0.1,30.12,North,0,4.0,8.0,77,0.00,,,0.00,Wunderground v.1.15,2013-01-01 09:54:00,
2013-01-01 03:56:00,5.8,0.1,30.12,North,0,6.0,8.0,77,0.00,,,0.00,Wunderground v.1.15,2013-01-01 09:56:00,
2013-01-01 03:57:00,5.8,0.1,30.12,North,0,7.0,8.0,77,0.00,,,0.00,Wunderground v.1.15,2013-01-01 09:57:00,
2013-01-01 04:00:00,6.0,0.3,30.12,North,0,5.0,6.0,77,0.00,,,0.00,Wunderground v.1.15,2013-01-01 10:00:00,
2013-01-01 04:05:00,6.0,0.3,30.12,North,0,5.0,7.0,77,0.00,,,0.00,Wunderground v.1.15,2013-01-01 10:05:00,
2013-01-01 04:06:00,6.0,0.3,30.12,North,0,3.0,7.0,77,0.00,,,0.00,Wunderground v.1.15,2013-01-01 10:06:00,
2013-01-01 04:10:00,5.8,0.1,30.12,North,1,4.0,5.0,77,0.00,,,0.00,Wunderground v.1.15,2013-01-01 10:10:00,
2013-01-01 04:11:00,5.8,0.1,30.12,North,9,3.0,6.0,77,0.00,,,0.00,Wunderground v.1.15,2013-01-01 10:11:00,
2013-01-01 04:15:00,5.6,-0.1,30.12,North,5,5.0,6.0,77,0.00,,,0.00,Wunderground v.1.15,2013-01-01 10:15:00,
2013-01-01 04:16:00,5.6,-0.1,30.12,North,4,7.0,7.0,77,0.00,,,0.00,Wunderground v.1.15,2013-01-01 10:16:00,
2013-01-01 04:20:00,5.6,-0.1,30.12,North,1,5.0,5.0,77,0.00,,,0.00,Wunderground v.1.15,2013-01-01 10:20:00,
2013-01-01 04:21:00,5.6,-0.1,30.12,North,4,7.0,7.0,77,0.00,,,0.00,Wunderground v.1.15,2013-01-01 10:21:00,
2013-01-01 04:26:00,5.6,-0.1,30.12,North,0,6.0,8.0,77,0.00,,,0.00,Wunderground v.1.15,2013-01-01 10:26:00,
2013-01-01 04:30:00,5.6,0.2,30.12,North,0,5.0,5.0,78,0.00,,,0.00,Wunderground v.1.15,2013-01-01 10:30:00,
2013-01-01 04:31:00,5.6,-0.1,30.12,North,0,5.0,5.0,77,0.00,,,0.00,Wunderground v.1.15,2013-01-01 10:31:00,
2013-01-01 04:32:00,5.6,-0.1,30.12,North,5,4.0,6.0,77,0.00,,,0.00,Wunderground v.1.15,2013-01-01 10:32:00,
2013-01-01 04:36:00,5.4,-0.2,30.12,North,5,4.0,6.0,77,0.00,,,0.00,Wunderground v.1.15,2013-01-01 10:36:00,
2013-01-01 04:37:00,5.6,-0.1,30.12,North,7,5.0,6.0,77,0.00,,,0.00,Wunderground v.1.15,2013-01-01 10:37:00,
2013-01-01 04:39:00,5.6,0.2,30.12,North,0,2.0,8.0,78,0.00,,,0.00,Wunderground v.1.15,2013-01-01 10:39:00,
2013-01-01 04:41:00,5.8,0.1,30.12,North,359,4.0,6.0,77,0.00,,,0.00,Wunderground v.1.15,2013-01-01 10:41:00,
2013-01-01 04:45:00,5.8,0.1,30.12,NNE,17,3.0,6.0,77,0.00,,,0.00,Wunderground v.1.15,2013-01-01 10:45:00,
2013-01-01 04:47:00,5.6,-0.1,30.12,NNW,338,6.0,6.0,77,0.00,,,0.00,Wunderground v.1.15,2013-01-01 10:47:00,
2013-01-01 04:50:00,5.6,-0.1,30.12,North,0,3.0,4.0,77,0.00,,,0.00,Wunderground v.1.15,2013-01-01 10:50:00,
2013-01-01 04:51:00,5.6,-0.1,30.12,North,0,4.0,4.0,77,0.00,,,0.00,Wunderground v.1.15,2013-01-01 10:51:00,
2013-01-01 04:52:00,5.6,-0.1,30.12,North,354,4.0,6.0,77,0.00,,,0.00,Wunderground v.1.15,2013-01-01 10:52:00,
2013-01-01 04:55:00,5.6,-0.1,30.12,North,352,5.0,6.0,77,0.00,,,0.00,Wunderground v.1.15,2013-01-01 10:55:00,
2013-01-01 04:56:00,5.6,-0.1,30.12,North,353,4.0,6.0,77,0.00,,,0.00,Wunderground v.1.15,2013-01-01 10:56:00,
2013-01-01 04:57:00,5.6,-0.1,30.12,North,1,6.0,6.0,77,0.00,,,0.00,Wunderground v.1.15,2013-01-01 10:57:00,
2013-01-01 05:00:00,5.4,-0.2,30.12,North,0,3.0,5.0,77,0.00,,,0.00,Wunderground v.1.15,2013-01-01 11:00:00,
2013-01-01 05:01:00,5.4,-0.2,30.12,North,0,6.0,6.0,77,0.00,,,0.00,Wunderground v.1.15,2013-01-01 11:01:00,
2013-01-01 05:04:00,5.4,-0.2,30.12,North,3,5.0,6.0,77,0.00,,,0.00,Wunderground v.1.15,2013-01-01 11:04:00,
2013-01-01 05:05:00,5.4,-0.2,30.12,North,4,9.0,9.0,77,0.00,,,0.00,Wunderground v.1.15,2013-01-01 11:05:00,
2013-01-01 05:06:00,5.6,-0.1,30.12,North,0,7.0,9.0,77,0.00,,,0.00,Wunderground v.1.15,2013-01-01 11:06:00,
2013-01-01 05:07:00,5.6,-0.1,30.12,North,354,6.0,9.0,77,0.00,,,0.00,Wunderground v.1.15,2013-01-01 11:07:00,
2013-01-01 05:11:00,5.6,-0.1,30.14,North,0,4.0,7.0,77,0.00,,,0.00,Wunderground v.1.15,2013-01-01 11:11:00,
2013-01-01 05:12:00,5.6,-0.1,30.14,NNW,340,3.0,7.0,77,0.00,,,0.00,Wunderground v.1.15,2013-01-01 11:12:00,
2013-01-01 05:14:00,5.6,-0.1,30.14,NNW,346,3.0,7.0,77,0.00,,,0.00,Wunderground v.1.15,2013-01-01 11:14:00,
2013-01-01 05:16:00,5.4,-0.2,30.14,North,352,5.0,7.0,77,0.00,,,0.00,Wunderground v.1.15,2013-01-01 11:16:00,
2013-01-01 05:17:00,5.4,-0.2,30.14,North,1,6.0,7.0,77,0.00,,,0.00,Wunderground v.1.15,2013-01-01 11:17:00,
2013-01-01 05:22:00,5.4,-0.2,30.14,North,359,3.0,5.0,77,0.00,,,0.00,Wunderground v.1.15,2013-01-01 11:22:00,
2013-01-01 05:25:00,5.4,-0.2,30.14,North,8,5.0,6.0,77,0.00,,,0.00,Wunderground v.1.15,2013-01-01 11:25:00,
2013-01-01 05:26:00,5.4,-0.2,30.14,North,358,2.0,6.0,77,0.00,,,0.00,Wunderground v.1.15,2013-01-01 11:26:00,
2013-01-01 05:27:00,5.4,-0.2,30.14,North,0,4.0,6.0,77,0.00,,,0.00,Wunderground v.1.15,2013-01-01 11:27:00,
2013-01-01 05:30:00,5.4,-0.2,30.14,NNW,347,5.0,5.0,77,0.00,,,0.00,Wunderground v.1.15,2013-01-01 11:30:00,
2013-01-01 05:34:00,5.2,-0.4,30.14,North,0,4.0,6.0,77,0.00,,,0.00,Wunderground v.1.15,2013-01-01 11:34:00,
2013-01-01 05:35:00,5.2,-0.4,30.14,North,0,4.0,6.0,77,0.00,,,0.00,Wunderground v.1.15,2013-01-01 11:35:00,
2013-01-01 05:39:00,5.2,-0.2,30.15,North,0,7.0,7.0,78,0.00,,,0.00,Wunderground v.1.15,2013-01-01 11:39:00,
2013-01-01 05:40:00,5.2,-0.2,30.15,North,1,5.0,7.0,78,0.00,,,0.00,Wunderground v.1.15,2013-01-01 11:40:00,
2013-01-01 05:41:00,5.2,-0.4,30.15,North,0,3.0,7.0,77,0.00,,,0.00,Wunderground v.1.15,2013-01-01 11:41:00,
2013-01-01 05:45:00,5.2,-0.4,30.15,North,0,5.0,7.0,77,0.00,,,0.00,Wunderground v.1.15,2013-01-01 11:45:00,
2013-01-01 05:46:00,5.2,-0.4,30.15,North,359,4.0,7.0,77,0.00,,,0.00,Wunderground v.1.15,2013-01-01 11:46:00,
2013-01-01 05:47:00,5.4,-0.2,30.15,North,0,4.0,7.0,77,0.00,,,0.00,Wunderground v.1.15,2013-01-01 11:47:00,
2013-01-01 05:51:00,5.4,-0.2,30.15,North,0,4.0,6.0,77,0.00,,,0.00,Wunderground v.1.15,2013-01-01 11:51:00,
2013-01-01 05:52:00,5.2,-0.4,30.15,North,359,4.0,7.0,77,0.00,,,0.00,Wunderground v.1.15,2013-01-01 11:52:00,
2013-01-01 05:56:00,5.2,-0.4,30.15,North,0,5.0,7.0,77,0.00,,,0.00,Wunderground v.1.15,2013-01-01 11:56:00,
2013-01-01 05:59:00,5.2,-0.4,30.15,North,359,3.0,5.0,77,0.00,,,0.00,Wunderground v.1.15,2013-01-01 11:59:00,
2013-01-01 06:00:00,5.2,-0.4,30.15,North,358,5.0,5.0,77,0.00,,,0.00,Wunderground v.1.15,2013-01-01 12:00:00,
2013-01-01 06:01:00,5.2,-0.4,30.15,North,358,5.0,5.0,77,0.00,,,0.00,Wunderground v.1.15,2013-01-01 12:01:00,
2013-01-01 06:05:00,5.2,-0.4,30.15,North,359,4.0,6.0,77,0.00,,,0.00,Wunderground v.1.15,2013-01-01 12:05:00,
2013-01-01 06:07:00,5.2,-0.4,30.15,North,359,6.0,6.0,77,0.00,,,0.00,Wunderground v.1.15,2013-01-01 12:07:00,
2013-01-01 06:10:00,5.0,-0.6,30.16,North,1,4.0,6.0,77,0.00,,,0.00,Wunderground v.1.15,2013-01-01 12:10:00,
2013-01-01 06:11:00,5.0,-0.6,30.16,North,0,3.0,6.0,77,0.00,,,0.00,Wunderground v.1.15,2013-01-01 12:11:00,
2013-01-01 06:12:00,5.0,-0.6,30.16,North,10,7.0,7.0,77,0.00,,,0.00,Wunderground v.1.15,2013-01-01 12:12:00,
2013-01-01 06:15:00,5.0,-0.6,30.16,North,359,11.0,11.0,77,0.00,,,0.00,Wunderground v.1.15,2013-01-01 12:15:00,
2013-01-01 06:16:00,5.0,-0.6,30.16,NNE,13,6.0,11.0,77,0.00,,,0.00,Wunderground v.1.15,2013-01-01 12:16:00,
2013-01-01 06:20:00,5.0,-0.6,30.16,North,359,6.0,9.0,77,0.00,,,0.00,Wunderground v.1.15,2013-01-01 12:20:00,
2013-01-01 06:21:00,5.0,-0.6,30.16,North,358,10.0,11.0,77,0.00,,,0.00,Wunderground v.1.15,2013-01-01 12:21:00,
2013-01-01 06:26:00,5.0,-0.6,30.16,NNW,348,6.0,11.0,77,0.00,,,0.00,Wunderground v.1.15,2013-01-01 12:26:00,
2013-01-01 06:27:00,5.0,-0.6,30.16,North,0,4.0,11.0,77,0.00,,,0.00,Wunderground v.1.15,2013-01-01 12:27:00,
2013-01-01 06:32:00,5.0,-0.6,30.16,North,359,5.0,10.0,77,0.00,,,0.00,Wunderground v.1.15,2013-01-01 12:32:00,
2013-01-01 06:35:00,5.0,-0.6,30.16,North,0,7.0,10.0,77,0.00,,,0.00,Wunderground v.1.15,2013-01-01 12:35:00,
2013-01-01 06:37:00,4.8,-0.8,30.16,North,5,2.0,10.0,77,0.00,,,0.00,Wunderground v.1.15,2013-01-01 12:37:00,
2013-01-01 06:39:00,4.8,-0.8,30.17,NNW,343,3.0,5.0,77,0.00,,,0.00,Wunderground v.1.15,2013-01-01 12:39:00,
2013-01-01 06:40:00,4.8,-0.8,30.17,North,350,4.0,5.0,77,0.00,,,0.00,Wunderground v.1.15,2013-01-01 12:40:00,
2013-01-01 06:44:00,4.7,-0.9,30.17,North,356,2.0,5.0,77,0.00,,,0.00,Wunderground v.1.15,2013-01-01 12:44:00,
2013-01-01 06:45:00,4.7,-0.9,30.17,North,356,2.0,5.0,77,0.00,,,0.00,Wunderground v.1.15,2013-01-01 12:45:00,
2013-01-01 06:46:00,4.7,-0.9,30.17,North,356,1.0,5.0,77,0.00,,,0.00,Wunderground v.1.15,2013-01-01 12:46:00,
2013-01-01 06:50:00,4.5,-1.1,30.17,NNW,335,4.0,4.0,77,0.00,,,0.00,Wunderground v.1.15,2013-01-01 12:50:00,
2013-01-01 06:51:00,4.5,-1.1,30.17,NNW,335,3.0,4.0,77,0.00,,,0.00,Wunderground v.1.15,2013-01-01 12:51:00,
2013-01-01 06:55:00,4.3,-1.3,30.16,NNW,335,4.0,4.0,77,0.00,,,0.00,Wunderground v.1.15,2013-01-01 12:55:00,
2013-01-01 06:56:00,4.3,-1.3,30.16,NNW,335,2.0,4.0,77,0.00,,,0.00,Wunderground v.1.15,2013-01-01 12:56:00,
2013-01-01 06:57:00,4.1,-1.5,30.16,NNW,333,3.0,4.0,77,0.00,,,0.00,Wunderground v.1.15,2013-01-01 12:57:00,
2013-01-01 07:01:00,3.9,-1.7,30.16,NNW,333,3.0,4.0,77,0.00,,,0.00,Wunderground v.1.15,2013-01-01 13:01:00,
2013-01-01 07:02:00,3.9,-1.4,30.16,NNW,333,3.0,4.0,78,0.00,,,0.00,Wunderground v.1.15,2013-01-01 13:02:00,
2013-01-01 07:05:00,3.9,-1.4,30.16,NNW,334,3.0,5.0,78,0.00,,,0.00,Wunderground v.1.15,2013-01-01 13:05:00,
2013-01-01 07:06:00,3.7,-1.6,30.16,NW,320,4.0,5.0,78,0.00,,,0.00,Wunderground v.1.15,2013-01-01 13:06:00,
2013-01-01 07:07:00,3.7,-1.6,30.16,NW,320,4.0,5.0,78,0.00,,,0.00,Wunderground v.1.15,2013-01-01 13:07:00,
2013-01-01 07:11:00,3.7,-1.6,30.17,NNW,333,4.0,4.0,78,0.00,,,0.00,Wunderground v.1.15,2013-01-01 13:11:00,
2013-01-01 07:12:00,3.7,-1.6,30.17,NNW,331,4.0,4.0,78,0.00,,,0.00,Wunderground v.1.15,2013-01-01 13:12:00,
2013-01-01 07:14:00,3.5,-1.8,30.17,NNW,328,5.0,5.0,78,0.00,,,0.00,Wunderground v.1.15,2013-01-01 13:14:00,
2013-01-01 07:15:00,3.5,-1.8,30.17,NNW,333,4.0,5.0,78,0.00,,,0.00,Wunderground v.1.15,2013-01-01 13:15:00,
2013-01-01 07:19:00,3.5,-1.8,30.17,NNW,342,5.0,5.0,78,0.00,,,0.00,Wunderground v.1.15,2013-01-01 13:19:00,
2013-01-01 07:20:00,3.5,-1.8,30.17,NNW,347,4.0,5.0,78,0.00,,,0.00,Wunderground v.1.15,2013-01-01 13:20:00,
2013-01-01 07:24:00,3.4,-1.9,30.18,NNW,345,4.0,6.0,78,0.00,,,0.00,Wunderground v.1.15,2013-01-01 13:24:00,
2013-01-01 07:25:00,3.4,-1.7,30.18,NNW,345,4.0,6.0,79,0.00,,,0.00,Wunderground v.1.15,2013-01-01 13:25:00,
2013-01-01 07:26:00,3.4,-1.7,30.18,NNW,345,3.0,6.0,79,0.00,,,0.00,Wunderground v.1.15,2013-01-01 13:26:00,
2013-01-01 07:27:00,3.4,-1.7,30.18,NNW,345,5.0,6.0,79,0.00,,,0.00,Wunderground v.1.15,2013-01-01 13:27:00,
2013-01-01 07:30:00,3.4,-1.7,30.18,NNW,336,5.0,5.0,79,0.00,,,0.00,Wunderground v.1.15,2013-01-01 13:30:00,
2013-01-01 07:31:00,3.4,-1.7,30.18,NNW,336,5.0,5.0,79,0.00,,,0.00,Wunderground v.1.15,2013-01-01 13:31:00,
2013-01-01 07:32:00,3.4,-1.7,30.18,NNW,336,5.0,5.0,79,0.00,,,0.00,Wunderground v.1.15,2013-01-01 13:32:00,
2013-01-01 07:36:00,3.5,-1.6,30.18,NNW,343,6.0,6.0,79,0.00,,,0.00,Wunderground v.1.15,2013-01-01 13:36:00,
2013-01-01 07:39:00,3.5,-1.6,30.18,North,349,7.0,7.0,79,0.00,,,0.00,Wunderground v.1.15,2013-01-01 13:39:00,
2013-01-01 07:40:00,3.5,-1.6,30.18,NW,326,4.0,7.0,79,0.00,,,0.00,Wunderground v.1.15,2013-01-01 13:40:00,
2013-01-01 07:43:00,3.5,-1.6,30.18,NNW,346,3.0,7.0,79,0.00,,,0.00,Wunderground v.1.15,2013-01-01 13:43:00,
2013-01-01 07:45:00,3.5,-1.6,30.18,NNW,346,3.0,7.0,79,0.00,,,0.00,Wunderground v.1.15,2013-01-01 13:45:00,
2013-01-01 07:46:00,3.5,-1.6,30.18,NNW,346,3.0,7.0,79,0.00,,,0.00,Wunderground v.1.15,2013-01-01 13:46:00,
2013-01-01 07:50:00,3.5,-1.6,30.18,NNW,346,4.0,4.0,79,0.00,,,0.00,Wunderground v.1.15,2013-01-01 13:50:00,
2013-01-01 07:51:00,3.5,-1.6,30.18,NNW,345,4.0,4.0,79,0.00,,,0.00,Wunderground v.1.15,2013-01-01 13:51:00,
2013-01-01 07:56:00,3.4,-1.7,30.19,NNW,341,4.0,5.0,79,0.00,,,0.00,Wunderground v.1.15,2013-01-01 13:56:00,
2013-01-01 07:59:00,3.4,-1.7,30.19,NNW,345,5.0,5.0,79,0.00,,,0.00,Wunderground v.1.15,2013-01-01 13:59:00,
2013-01-01 08:00:00,3.4,-1.7,30.19,NNW,345,5.0,6.0,79,0.00,,,0.00,Wunderground v.1.15,2013-01-01 14:00:00,
2013-01-01 08:01:00,3.4,-1.7,30.19,North,352,3.0,6.0,79,0.00,,,0.00,Wunderground v.1.15,2013-01-01 14:01:00,
2013-01-01 08:04:00,3.4,-1.7,30.19,NNW,336,4.0,6.0,79,0.00,,,0.00,Wunderground v.1.15,2013-01-01 14:04:00,
2013-01-01 08:05:00,3.4,-1.7,30.19,NNW,342,5.0,6.0,79,0.00,,,0.00,Wunderground v.1.15,2013-01-01 14:05:00,
2013-01-01 08:07:00,3.4,-1.7,30.19,NNW,347,4.0,6.0,79,0.00,,,0.00,Wunderground v.1.15,2013-01-01 14:07:00,
2013-01-01 08:09:00,3.5,-1.6,30.19,NNW,341,3.0,5.0,79,0.00,,,0.00,Wunderground v.1.15,2013-01-01 14:09:00,
2013-01-01 08:10:00,3.5,-1.6,30.19,NNW,341,4.0,5.0,79,0.00,,,0.00,Wunderground v.1.15,2013-01-01 14:10:00,
2013-01-01 08:11:00,3.5,-1.6,30.19,NNW,345,3.0,5.0,79,0.00,,,0.00,Wunderground v.1.15,2013-01-01 14:11:00,
2013-01-01 08:12:00,3.5,-1.6,30.19,NNW,345,5.0,5.0,79,0.00,,,0.00,Wunderground v.1.15,2013-01-01 14:12:00,
2013-01-01 08:15:00,3.5,-1.6,30.19,NNW,335,4.0,5.0,79,0.00,,,0.00,Wunderground v.1.15,2013-01-01 14:15:00,
2013-01-01 08:16:00,3.7,-1.4,30.19,NNW,340,4.0,5.0,79,0.00,,,0.00,Wunderground v.1.15,2013-01-01 14:16:00,
2013-01-01 08:19:00,3.9,-1.2,30.19,NNW,335,4.0,4.0,79,0.00,,,0.00,Wunderground v.1.15,2013-01-01 14:19:00,
2013-01-01 08:21:00,3.9,-1.2,30.19,NNW,343,5.0,6.0,79,0.00,,,0.00,Wunderground v.1.15,2013-01-01 14:21:00,
2013-01-01 08:25:00,4.3,-0.8,30.19,NNW,346,5.0,6.0,79,0.00,,,0.00,Wunderground v.1.15,2013-01-01 14:25:00,
2013-01-01 08:27:00,4.3,-0.8,30.19,North,349,4.0,6.0,79,0.00,,,0.00,Wunderground v.1.15,2013-01-01 14:27:00,
2013-01-01 08:30:00,4.5,-0.6,30.19,North,349,4.0,5.0,79,0.00,,,0.00,Wunderground v.1.15,2013-01-01 14:30:00,
2013-01-01 08:32:00,4.5,-0.6,30.19,North,359,10.0,10.0,79,0.00,,,0.00,Wunderground v.1.15,2013-01-01 14:32:00,
2013-01-01 08:35:00,4.7,-0.4,30.19,North,350,4.0,10.0,79,0.00,,,0.00,Wunderground v.1.15,2013-01-01 14:35:00,
2013-01-01 08:36:00,4.8,-0.6,30.19,NNW,342,5.0,10.0,78,0.00,,,0.00,Wunderground v.1.15,2013-01-01 14:36:00,
2013-01-01 08:37:00,4.8,-0.6,30.19,North,351,5.0,10.0,78,0.00,,,0.00,Wunderground v.1.15,2013-01-01 14:37:00,
2013-01-01 08:40:00,4.8,-0.6,30.19,NNW,338,4.0,5.0,78,0.00,,,0.00,Wunderground v.1.15,2013-01-01 14:40:00,
2013-01-01 08:41:00,4.8,-0.6,30.19,NNW,342,6.0,6.0,78,0.00,,,0.00,Wunderground v.1.15,2013-01-01 14:41:00,
2013-01-01 08:44:00,5.0,-0.4,30.19,NNW,335,3.0,6.0,78,0.00,,,0.00,Wunderground v.1.15,2013-01-01 14:44:00,
2013-01-01 08:46:00,5.2,-0.2,30.19,NNW,341,4.0,6.0,78,0.00,,,0.00,Wunderground v.1.15,2013-01-01 14:46:00,
2013-01-01 08:47:00,5.4,0.0,30.19,NNW,338,6.0,6.0,78,0.00,,,0.00,Wunderground v.1.15,2013-01-01 14:47:00,
2013-01-01 08:49:00,5.4,0.0,30.19,NNW,330,5.0,5.0,78,0.00,,,0.00,Wunderground v.1.15,2013-01-01 14:49:00,
2013-01-01 08:51:00,5.6,-0.1,30.19,North,359,6.0,6.0,77,0.00,,,0.00,Wunderground v.1.15,2013-01-01 14:51:00,
2013-01-01 08:55:00,6.0,0.3,30.19,North,0,4.0,10.0,77,0.00,,,0.00,Wunderground v.1.15,2013-01-01 14:55:00,
2013-01-01 08:56:00,6.1,0.2,30.19,North,352,6.0,10.0,76,0.00,,,0.00,Wunderground v.1.15,2013-01-01 14:56:00,
2013-01-01 08:59:00,6.3,0.3,30.19,NNW,347,7.0,7.0,76,0.00,,,0.00,Wunderground v.1.15,2013-01-01 14:59:00,
2013-01-01 09:00:00,6.3,0.3,30.19,NNW,343,5.0,7.0,76,0.00,,,0.00,Wunderground v.1.15,2013-01-01 15:00:00,
2013-01-01 09:01:00,6.3,0.3,30.19,North,352,5.0,9.0,76,0.00,,,0.00,Wunderground v.1.15,2013-01-01 15:01:00,
2013-01-01 09:04:00,6.5,0.3,30.19,North,0,2.0,9.0,75,0.00,,,0.00,Wunderground v.1.15,2013-01-01 15:04:00,
2013-01-01 09:05:00,6.7,0.5,30.19,North,0,7.0,9.0,75,0.00,,,0.00,Wunderground v.1.15,2013-01-01 15:05:00,
2013-01-01 09:10:00,6.9,0.6,30.18,North,4,8.0,8.0,75,0.00,,,0.00,Wunderground v.1.15,2013-01-01 15:10:00,
2013-01-01 09:11:00,7.0,0.7,30.18,North,0,7.0,8.0,75,0.00,,,0.00,Wunderground v.1.15,2013-01-01 15:11:00,
2013-01-01 09:15:00,7.2,0.7,30.18,North,0,10.0,11.0,74,0.00,,,0.00,Wunderground v.1.15,2013-01-01 15:15:00,
2013-01-01 09:16:00,7.2,0.7,30.18,North,0,9.0,12.0,74,0.00,,,0.00,Wunderground v.1.15,2013-01-01 15:16:00,
2013-01-01 09:19:00,7.4,0.8,30.18,North,6,4.0,10.0,74,0.00,,,0.00,Wunderground v.1.15,2013-01-01 15:19:00,
2013-01-01 09:20:00,7.4,0.6,30.18,North,2,5.0,10.0,73,0.00,,,0.00,Wunderground v.1.15,2013-01-01 15:20:00,
2013-01-01 09:21:00,7.4,0.6,30.18,NNE,14,9.0,10.0,73,0.00,,,0.00,Wunderground v.1.15,2013-01-01 15:21:00,
2013-01-01 09:24:00,7.6,0.7,30.17,North,0,9.0,10.0,73,0.00,,,0.00,Wunderground v.1.15,2013-01-01 15:24:00,
2013-01-01 09:25:00,7.6,0.7,30.17,North,0,5.0,10.0,73,0.00,,,0.00,Wunderground v.1.15,2013-01-01 15:25:00,
2013-01-01 09:27:00,7.7,0.8,30.17,North,1,5.0,10.0,73,0.00,,,0.00,Wunderground v.1.15,2013-01-01 15:27:00,
2013-01-01 09:30:00,8.1,1.2,30.17,North,1,5.0,9.0,73,0.00,,,0.00,Wunderground v.1.15,2013-01-01 15:30:00,
2013-01-01 09:31:00,8.1,1.2,30.17,North,1,6.0,9.0,73,0.00,,,0.00,Wunderground v.1.15,2013-01-01 15:31:00,
2013-01-01 09:35:00,8.3,1.1,30.17,NNE,27,9.0,11.0,72,0.00,,,0.00,Wunderground v.1.15,2013-01-01 15:35:00,
2013-01-01 09:36:00,8.3,1.1,30.17,NNE,15,9.0,11.0,72,0.00,,,0.00,Wunderground v.1.15,2013-01-01 15:36:00,
2013-01-01 09:37:00,8.3,1.1,30.17,NNE,15,11.0,11.0,72,0.00,,,0.00,Wunderground v.1.15,2013-01-01 15:37:00,
2013-01-01 09:40:00,8.4,0.9,30.17,NNE,13,10.0,11.0,71,0.00,,,0.00,Wunderground v.1.15,2013-01-01 15:40:00,
2013-01-01 09:41:00,8.4,0.9,30.17,North,1,12.0,12.0,71,0.00,,,0.00,Wunderground v.1.15,2013-01-01 15:41:00,
2013-01-01 09:42:00,8.4,0.9,30.17,North,0,12.0,13.0,71,0.00,,,0.00,Wunderground v.1.15,2013-01-01 15:42:00,
2013-01-01 09:46:00,8.4,0.9,30.17,North,6,13.0,13.0,71,0.00,,,0.00,Wunderground v.1.15,2013-01-01 15:46:00,
2013-01-01 09:47:00,8.4,0.9,30.17,North,6,11.0,13.0,71,0.00,,,0.00,Wunderground v.1.15,2013-01-01 15:47:00,
2013-01-01 09:50:00,8.6,1.1,30.17,North,351,11.0,11.0,71,0.00,,,0.00,Wunderground v.1.15,2013-01-01 15:50:00,
2013-01-01 09:54:00,8.6,0.8,30.17,North,2,10.0,14.0,70,0.00,,,0.00,Wunderground v.1.15,2013-01-01 15:54:00,
2013-01-01 09:55:00,8.6,0.8,30.17,North,0,9.0,14.0,70,0.00,,,0.00,Wunderground v.1.15,2013-01-01 15:55:00,
2013-01-01 09:59:00,8.8,1.0,30.17,North,9,12.0,12.0,70,0.00,,,0.00,Wunderground v.1.15,2013-01-01 15:59:00,
2013-01-01 10:00:00,8.8,1.0,30.17,North,0,14.0,14.0,70,0.00,,,0.00,Wunderground v.1.15,2013-01-01 16:00:00,
2013-01-01 10:05:00,8.8,1.0,30.17,North,11,7.0,15.0,70,0.00,,,0.00,Wunderground v.1.15,2013-01-01 16:05:00,
2013-01-01 10:06:00,8.8,1.0,30.17,North,0,10.0,15.0,70,0.00,,,0.00,Wunderground v.1.15,2013-01-01 16:06:00,
2013-01-01 10:10:00,9.0,0.9,30.17,North,359,10.0,13.0,69,0.00,,,0.00,Wunderground v.1.15,2013-01-01 16:10:00,
2013-01-01 10:11:00,9.2,1.1,30.17,North,0,5.0,13.0,69,0.00,,,0.00,Wunderground v.1.15,2013-01-01 16:11:00,
2013-01-01 10:14:00,9.3,1.2,30.17,NNE,13,6.0,13.0,69,0.00,,,0.00,Wunderground v.1.15,2013-01-01 16:14:00,
2013-01-01 10:16:00,9.3,1.2,30.17,NNE,15,10.0,13.0,69,0.00,,,0.00,Wunderground v.1.15,2013-01-01 16:16:00,
2013-01-01 10:19:00,9.5,1.4,30.17,North,5,13.0,13.0,69,0.00,,,0.00,Wunderground v.1.15,2013-01-01 16:19:00,
2013-01-01 10:20:00,9.5,1.4,30.17,North,359,6.0,13.0,69,0.00,,,0.00,Wunderground v.1.15,2013-01-01 16:20:00,
2013-01-01 10:21:00,9.5,1.1,30.17,North,3,10.0,13.0,68,0.00,,,0.00,Wunderground v.1.15,2013-01-01 16:21:00,
2013-01-01 10:22:00,9.5,1.1,30.17,NNE,12,10.0,13.0,68,0.00,,,0.00,Wunderground v.1.15,2013-01-01 16:22:00,
2013-01-01 10:26:00,9.7,1.2,30.17,North,0,9.0,13.0,68,0.00,,,0.00,Wunderground v.1.15,2013-01-01 16:26:00,
2013-01-01 10:27:00,9.9,1.4,30.17,North,1,14.0,14.0,68,0.00,,,0.00,Wunderground v.1.15,2013-01-01 16:27:00,
2013-01-01 10:29:00,10.0,1.9,30.17,North,0,11.0,11.0,69,0.00,,,0.00,Wunderground v.1.15,2013-01-01 16:29:00,
2013-01-01 10:30:00,10.0,1.5,30.17,North,1,10.0,11.0,68,0.00,,,0.00,Wunderground v.1.15,2013-01-01 16:30:00,
2013-01-01 10:32:00,10.2,1.7,30.17,North,1,9.0,11.0,68,0.00,,,0.00,Wunderground v.1.15,2013-01-01 16:32:00,
2013-01-01 10:34:00,10.4,1.9,30.17,NNW,347,9.0,11.0,68,0.00,,,0.00,Wunderground v.1.15,2013-01-01 16:34:00,
2013-01-01 10:35:00,10.5,2.0,30.17,North,8,9.0,11.0,68,0.00,,,0.00,Wunderground v.1.15,2013-01-01 16:35:00,
2013-01-01 10:36:00,10.5,2.0,30.17,North,5,6.0,11.0,68,0.00,,,0.00,Wunderground v.1.15,2013-01-01 16:36:00,
2013-01-01 10:37:00,10.5,2.0,30.17,North,9,6.0,11.0,68,0.00,,,0.00,Wunderground v.1.15,2013-01-01 16:37:00,
2013-01-01 10:40:00,10.7,1.6,30.16,North,0,8.0,11.0,66,0.00,,,0.00,Wunderground v.1.15,2013-01-01 16:40:00,
2013-01-01 10:42:00,10.9,1.8,30.16,North,0,6.0,12.0,66,0.00,,,0.00,Wunderground v.1.15,2013-01-01 16:42:00,
2013-01-01 10:44:00,10.9,2.1,30.16,North,1,9.0,12.0,67,0.00,,,0.00,Wunderground v.1.15,2013-01-01 16:44:00,
2013-01-01 10:46:00,11.1,2.3,30.16,North,359,11.0,13.0,67,0.00,,,0.00,Wunderground v.1.15,2013-01-01 16:46:00,
2013-01-01 10:47:00,11.1,1.9,30.16,North,0,6.0,13.0,66,0.00,,,0.00,Wunderground v.1.15,2013-01-01 16:47:00,
2013-01-01 10:50:00,11.1,1.6,30.16,NNE,18,9.0,11.0,65,0.00,,,0.00,Wunderground v.1.15,2013-01-01 16:50:00,
2013-01-01 10:52:00,11.1,1.9,30.16,North,354,7.0,11.0,66,0.00,,,0.00,Wunderground v.1.15,2013-01-01 16:52:00,
2013-01-01 10:54:00,11.4,2.2,30.16,North,1,6.0,11.0,66,0.00,,,0.00,Wunderground v.1.15,2013-01-01 16:54:00,
2013-01-01 10:55:00,11.4,2.2,30.16,North,6,5.0,11.0,66,0.00,,,0.00,Wunderground v.1.15,2013-01-01 16:55:00,
2013-01-01 11:00:00,11.7,2.2,30.16,North,0,8.0,11.0,65,0.00,,,0.00,Wunderground v.1.15,2013-01-01 17:00:00,
2013-01-01 11:01:00,11.7,2.2,30.16,North,359,12.0,13.0,65,0.00,,,0.00,Wunderground v.1.15,2013-01-01 17:01:00,
2013-01-01 11:05:00,11.9,2.4,30.16,North,8,10.0,13.0,65,0.00,,,0.00,Wunderground v.1.15,2013-01-01 17:05:00,
2013-01-01 11:06:00,11.9,2.4,30.16,North,349,6.0,13.0,65,0.00,,,0.00,Wunderground v.1.15,2013-01-01 17:06:00,
2013-01-01 11:07:00,11.9,2.4,30.16,North,359,10.0,13.0,65,0.00,,,0.00,Wunderground v.1.15,2013-01-01 17:07:00,
2013-01-01 11:11:00,12.4,2.9,30.16,North,353,6.0,10.0,65,0.00,,,0.00,Wunderground v.1.15,2013-01-01 17:11:00,
2013-01-01 11:12:00,12.4,2.5,30.16,North,0,12.0,12.0,64,0.00,,,0.00,Wunderground v.1.15,2013-01-01 17:12:00,
2013-01-01 11:17:00,12.3,2.1,30.16,North,0,10.0,13.0,63,0.00,,,0.00,Wunderground v.1.15,2013-01-01 17:17:00,
2013-01-01 11:20:00,12.3,2.1,30.16,North,0,13.0,13.0,63,0.00,,,0.00,Wunderground v.1.15,2013-01-01 17:20:00,
2013-01-01 11:25:00,12.4,2.2,30.16,North,2,7.0,15.0,63,0.00,,,0.00,Wunderground v.1.15,2013-01-01 17:25:00,
2013-01-01 11:26:00,12.4,2.2,30.16,North,0,10.0,15.0,63,0.00,,,0.00,Wunderground v.1.15,2013-01-01 17:26:00,
2013-01-01 11:30:00,12.8,2.6,30.16,North,1,7.0,11.0,63,0.00,,,0.00,Wunderground v.1.15,2013-01-01 17:30:00,
2013-01-01 11:31:00,12.8,2.2,30.16,North,0,11.0,11.0,62,0.00,,,0.00,Wunderground v.1.15,2013-01-01 17:31:00,
2013-01-01 11:35:00,12.9,2.3,30.16,North,359,6.0,11.0,62,0.00,,,0.00,Wunderground v.1.15,2013-01-01 17:35:00,
2013-01-01 11:37:00,13.1,2.5,30.16,North,353,6.0,11.0,62,0.00,,,0.00,Wunderground v.1.15,2013-01-01 17:37:00,
2013-01-01 11:41:00,13.3,2.7,30.16,North,0,9.0,12.0,62,0.00,,,0.00,Wunderground v.1.15,2013-01-01 17:41:00,
2013-01-01 11:42:00,13.3,2.7,30.16,North,359,11.0,12.0,62,0.00,,,0.00,Wunderground v.1.15,2013-01-01 17:42:00,
2013-01-01 11:45:00,13.3,2.3,30.16,NNW,335,5.0,12.0,61,0.00,,,0.00,Wunderground v.1.15,2013-01-01 17:45:00,
2013-01-01 11:47:00,13.5,2.9,30.16,NNW,330,5.0,12.0,62,0.00,,,0.00,Wunderground v.1.15,2013-01-01 17:47:00,
2013-01-01 11:50:00,13.8,2.8,30.16,NW,309,6.0,10.0,61,0.00,,,0.00,Wunderground v.1.15,2013-01-01 17:50:00,
2013-01-01 11:51:00,13.8,2.5,30.16,NNW,340,10.0,13.0,60,0.00,,,0.00,Wunderground v.1.15,2013-01-01 17:51:00,
2013-01-01 11:52:00,13.8,2.1,30.16,NNW,346,12.0,13.0,59,0.00,,,0.00,Wunderground v.1.15,2013-01-01 17:52:00,
2013-01-01 11:54:00,13.8,2.1,30.15,NNW,338,10.0,13.0,59,0.00,,,0.00,Wunderground v.1.15,2013-01-01 17:54:00,
2013-01-01 11:55:00,13.8,2.5,30.15,North,0,10.0,13.0,60,0.00,,,0.00,Wunderground v.1.15,2013-01-01 17:55:00,
2013-01-01 11:58:00,14.0,2.3,30.15,NNW,340,7.0,13.0,59,0.00,,,0.00,Wunderground v.1.15,2013-01-01 17:58:00,
2013-01-01 12:00:00,14.0,2.7,30.15,North,0,9.0,9.0,60,0.00,,,0.00,Wunderground v.1.15,2013-01-01 18:00:00,
2013-01-01 12:01:00,14.0,2.3,30.15,North,0,9.0,11.0,59,0.00,,,0.00,Wunderground v.1.15,2013-01-01 18:01:00,
2013-01-01 12:05:00,14.0,2.7,30.15,NNW,327,14.0,14.0,60,0.00,,,0.00,Wunderground v.1.15,2013-01-01 18:05:00,
2013-01-01 12:06:00,14.0,2.7,30.15,NNW,335,15.0,15.0,60,0.00,,,0.00,Wunderground v.1.15,2013-01-01 18:06:00,
2013-01-01 12:07:00,14.0,2.7,30.15,North,359,13.0,15.0,60,0.00,,,0.00,Wunderground v.1.15,2013-01-01 18:07:00,
2013-01-01 12:11:00,14.0,2.7,30.14,NNW,335,14.0,14.0,60,0.00,,,0.00,Wunderground v.1.15,2013-01-01 18:11:00,
2013-01-01 12:15:00,14.0,2.7,30.14,NW,317,9.0,14.0,60,0.00,,,0.00,Wunderground v.1.15,2013-01-01 18:15:00,
2013-01-01 12:16:00,14.1,2.7,30.14,NNW,335,12.0,14.0,60,0.00,,,0.00,Wunderground v.1.15,2013-01-01 18:16:00,
2013-01-01 12:21:00,14.1,2.0,30.14,NNW,338,8.0,13.0,58,0.00,,,0.00,Wunderground v.1.15,2013-01-01 18:21:00,
2013-01-01 12:22:00,14.0,1.9,30.14,North,359,11.0,13.0,58,0.00,,,0.00,Wunderground v.1.15,2013-01-01 18:22:00,
2013-01-01 12:24:00,14.1,2.4,30.14,NNW,334,13.0,13.0,59,0.00,,,0.00,Wunderground v.1.15,2013-01-01 18:24:00,
2013-01-01 12:26:00,14.0,2.3,30.14,NW,322,10.0,13.0,59,0.00,,,0.00,Wunderground v.1.15,2013-01-01 18:26:00,
2013-01-01 12:27:00,14.0,1.9,30.14,NNW,328,10.0,13.0,58,0.00,,,0.00,Wunderground v.1.15,2013-01-01 18:27:00,
2013-01-01 12:28:00,14.0,2.3,30.14,NW,317,5.0,13.0,59,0.00,,,0.00,Wunderground v.1.15,2013-01-01 18:28:00,
2013-01-01 12:32:00,14.1,2.4,30.14,North,0,10.0,13.0,59,0.00,,,0.00,Wunderground v.1.15,2013-01-01 18:32:00,
2013-01-01 12:34:00,14.1,2.4,30.14,North,0,12.0,14.0,59,0.00,,,0.00,Wunderground v.1.15,2013-01-01 18:34:00,
2013-01-01 12:35:00,14.1,2.4,30.14,North,358,12.0,14.0,59,0.00,,,0.00,Wunderground v.1.15,2013-01-01 18:35:00,
2013-01-01 12:40:00,14.1,2.0,30.14,NW,325,9.0,15.0,58,0.00,,,0.00,Wunderground v.1.15,2013-01-01 18:40:00,
2013-01-01 12:42:00,14.1,2.4,30.14,NW,320,10.0,15.0,59,0.00,,,0.00,Wunderground v.1.15,2013-01-01 18:42:00,
2013-01-01 12:45:00,14.1,2.4,30.14,NNW,328,13.0,15.0,59,0.00,,,0.00,Wunderground v.1.15,2013-01-01 18:45:00,
2013-01-01 12:47:00,14.0,1.9,30.14,NNW,347,12.0,15.0,58,0.00,,,0.00,Wunderground v.1.15,2013-01-01 18:47:00,
2013-01-01 12:50:00,14.0,2.3,30.14,NNW,328,14.0,14.0,59,0.00,,,0.00,Wunderground v.1.15,2013-01-01 18:50:00,
2013-01-01 12:52:00,14.0,2.3,30.14,North,352,11.0,14.0,59,0.00,,,0.00,Wunderground v.1.15,2013-01-01 18:52:00,
2013-01-01 12:55:00,14.3,2.6,30.14,NW,306,13.0,14.0,59,0.00,,,0.00,Wunderground v.1.15,2013-01-01 18:55:00,
2013-01-01 12:56:00,14.3,2.2,30.14,NW,326,6.0,14.0,58,0.00,,,0.00,Wunderground v.1.15,2013-01-01 18:56:00,
2013-01-01 12:57:00,14.3,2.2,30.14,NW,321,11.0,14.0,58,0.00,,,0.00,Wunderground v.1.15,2013-01-01 18:57:00,
2013-01-01 12:59:00,14.4,2.7,30.14,North,359,5.0,14.0,59,0.00,,,0.00,Wunderground v.1.15,2013-01-01 18:59:00,
2013-01-01 13:00:00,14.3,2.2,30.14,North,352,7.0,11.0,58,0.00,,,0.00,Wunderground v.1.15,2013-01-01 19:00:00,
2013-01-01 13:05:00,14.3,2.2,30.14,NNW,338,5.0,13.0,58,0.00,,,0.00,Wunderground v.1.15,2013-01-01 19:05:00,
2013-01-01 13:06:00,14.4,2.3,30.14,NNW,336,6.0,13.0,58,0.00,,,0.00,Wunderground v.1.15,2013-01-01 19:06:00,
2013-01-01 13:10:00,14.6,2.5,30.14,NNW,330,4.0,8.0,58,0.00,,,0.00,Wunderground v.1.15,2013-01-01 19:10:00,
2013-01-01 13:11:00,14.6,2.5,30.14,WNW,298,10.0,10.0,58,0.00,,,0.00,Wunderground v.1.15,2013-01-01 19:11:00,
2013-01-01 13:14:00,14.4,1.9,30.14,NNW,328,12.0,12.0,57,0.00,,,0.00,Wunderground v.1.15,2013-01-01 19:14:00,
2013-01-01 13:15:00,14.3,1.8,30.14,NW,304,13.0,15.0,57,0.00,,,0.00,Wunderground v.1.15,2013-01-01 19:15:00,
2013-01-01 13:16:00,14.3,1.8,30.14,NNW,333,12.0,15.0,57,0.00,,,0.00,Wunderground v.1.15,2013-01-01 19:16:00,
2013-01-01 13:20:00,14.3,2.2,30.14,NNW,348,12.0,12.0,58,0.00,,,0.00,Wunderground v.1.15,2013-01-01 19:20:00,
2013-01-01 13:21:00,14.4,2.3,30.14,North,0,14.0,14.0,58,0.00,,,0.00,Wunderground v.1.15,2013-01-01 19:21:00,
2013-01-01 13:24:00,14.4,1.9,30.14,NNW,333,9.0,14.0,57,0.00,,,0.00,Wunderground v.1.15,2013-01-01 19:24:00,
2013-01-01 13:25:00,14.3,2.2,30.14,NW,319,7.0,14.0,58,0.00,,,0.00,Wunderground v.1.15,2013-01-01 19:25:00,
2013-01-01 13:26:00,14.4,2.3,30.14,NNW,344,10.0,14.0,58,0.00,,,0.00,Wunderground v.1.15,2013-01-01 19:26:00,
2013-01-01 13:30:00,14.4,2.3,30.14,NW,323,9.0,9.0,58,0.00,,,0.00,Wunderground v.1.15,2013-01-01 19:30:00,
2013-01-01 13:31:00,14.6,2.5,30.14,North,359,8.0,10.0,58,0.00,,,0.00,Wunderground v.1.15,2013-01-01 19:31:00,
2013-01-01 13:32:00,14.6,2.5,30.14,NNW,335,10.0,13.0,58,0.00,,,0.00,Wunderground v.1.15,2013-01-01 19:32:00,
2013-01-01 13:35:00,14.6,2.1,30.14,North,359,14.0,14.0,57,0.00,,,0.00,Wunderground v.1.15,2013-01-01 19:35:00,
2013-01-01 13:36:00,14.4,1.9,30.14,NNW,333,8.0,14.0,57,0.00,,,0.00,Wunderground v.1.15,2013-01-01 19:36:00,
2013-01-01 13:37:00,14.6,2.5,30.14,NW,326,8.0,14.0,58,0.00,,,0.00,Wunderground v.1.15,2013-01-01 19:37:00,
2013-01-01 13:41:00,14.6,2.1,30.14,NNW,342,7.0,12.0,57,0.00,,,0.00,Wunderground v.1.15,2013-01-01 19:41:00,
2013-01-01 13:42:00,14.6,2.1,30.14,North,357,12.0,13.0,57,0.00,,,0.00,Wunderground v.1.15,2013-01-01 19:42:00,
2013-01-01 13:45:00,14.6,2.1,30.14,North,359,5.0,13.0,57,0.00,,,0.00,Wunderground v.1.15,2013-01-01 19:45:00,
2013-01-01 13:46:00,14.6,2.1,30.14,NNW,340,9.0,13.0,57,0.00,,,0.00,Wunderground v.1.15,2013-01-01 19:46:00,
2013-01-01 13:51:00,14.6,2.1,30.14,North,352,8.0,10.0,57,0.00,,,0.00,Wunderground v.1.15,2013-01-01 19:51:00,
2013-01-01 13:54:00,14.8,2.3,30.13,NNW,332,5.0,10.0,57,0.00,,,0.00,Wunderground v.1.15,2013-01-01 19:54:00,
2013-01-01 13:56:00,14.8,2.3,30.13,NNW,328,10.0,11.0,57,0.00,,,0.00,Wunderground v.1.15,2013-01-01 19:56:00,
2013-01-01 13:57:00,14.8,1.9,30.13,WNW,299,10.0,12.0,56,0.00,,,0.00,Wunderground v.1.15,2013-01-01 19:57:00,
2013-01-01 14:01:00,14.6,1.7,30.13,NNW,344,11.0,13.0,56,0.00,,,0.00,Wunderground v.1.15,2013-01-01 20:01:00,
2013-01-01 14:02:00,14.6,1.7,30.13,NW,321,11.0,13.0,56,0.00,,,0.00,Wunderground v.1.15,2013-01-01 20:02:00,
2013-01-01 14:05:00,14.4,1.5,30.13,NNW,333,8.0,13.0,56,0.00,,,0.00,Wunderground v.1.15,2013-01-01 20:05:00,
2013-01-01 14:07:00,14.3,1.4,30.13,NW,309,11.0,13.0,56,0.00,,,0.00,Wunderground v.1.15,2013-01-01 20:07:00,
2013-01-01 14:09:00,14.3,1.4,30.13,NW,306,10.0,11.0,56,0.00,,,0.00,Wunderground v.1.15,2013-01-01 20:09:00,
2013-01-01 14:10:00,14.3,1.8,30.13,NNW,329,9.0,11.0,57,0.00,,,0.00,Wunderground v.1.15,2013-01-01 20:10:00,
2013-01-01 14:14:00,14.1,1.3,30.13,NW,315,9.0,12.0,56,0.00,,,0.00,Wunderground v.1.15,2013-01-01 20:14:00,
2013-01-01 14:15:00,14.3,1.8,30.13,NW,323,8.0,12.0,57,0.00,,,0.00,Wunderground v.1.15,2013-01-01 20:15:00,
2013-01-01 14:17:00,14.4,1.9,30.13,NNW,338,9.0,12.0,57,0.00,,,0.00,Wunderground v.1.15,2013-01-01 20:17:00,
2013-01-01 14:20:00,14.4,1.9,30.13,North,353,4.0,9.0,57,0.00,,,0.00,Wunderground v.1.15,2013-01-01 20:20:00,
2013-01-01 14:21:00,14.4,1.9,30.13,NNW,342,8.0,9.0,57,0.00,,,0.00,Wunderground v.1.15,2013-01-01 20:21:00,
2013-01-01 14:25:00,14.6,2.1,30.13,NNW,328,10.0,10.0,57,0.00,,,0.00,Wunderground v.1.15,2013-01-01 20:25:00,
2013-01-01 14:26:00,14.6,2.1,30.13,NW,320,11.0,11.0,57,0.00,,,0.00,Wunderground v.1.15,2013-01-01 20:26:00,
2013-01-01 14:30:00,14.6,2.1,30.13,NW,314,11.0,12.0,57,0.00,,,0.00,Wunderground v.1.15,2013-01-01 20:30:00,
2013-01-01 14:31:00,14.6,2.1,30.13,NW,326,15.0,15.0,57,0.00,,,0.00,Wunderground v.1.15,2013-01-01 20:31:00,
2013-01-01 14:35:00,14.4,1.9,30.13,NW,323,11.0,15.0,57,0.00,,,0.00,Wunderground v.1.15,2013-01-01 20:35:00,
2013-01-01 14:36:00,14.4,1.9,30.13,NW,326,10.0,15.0,57,0.00,,,0.00,Wunderground v.1.15,2013-01-01 20:36:00,
2013-01-01 14:37:00,14.3,1.8,30.13,NW,306,13.0,15.0,57,0.00,,,0.00,Wunderground v.1.15,2013-01-01 20:37:00,
2013-01-01 14:40:00,14.3,2.2,30.13,WNW,300,11.0,11.0,58,0.00,,,0.00,Wunderground v.1.15,2013-01-01 20:40:00,
2013-01-01 14:41:00,14.3,1.8,30.13,WNW,289,12.0,13.0,57,0.00,,,0.00,Wunderground v.1.15,2013-01-01 20:41:00,
2013-01-01 14:44:00,14.0,1.2,30.13,NW,321,13.0,13.0,56,0.00,,,0.00,Wunderground v.1.15,2013-01-01 20:44:00,
2013-01-01 14:45:00,14.0,1.2,30.13,WNW,303,10.0,13.0,56,0.00,,,0.00,Wunderground v.1.15,2013-01-01 20:45:00,
2013-01-01 14:46:00,13.8,1.0,30.13,NW,312,12.0,16.0,56,0.00,,,0.00,Wunderground v.1.15,2013-01-01 20:46:00,
2013-01-01 14:47:00,13.8,1.0,30.13,NW,321,14.0,16.0,56,0.00,,,0.00,Wunderground v.1.15,2013-01-01 20:47:00,
2013-01-01 14:50:00,13.6,0.8,30.13,NW,304,9.0,15.0,56,0.00,,,0.00,Wunderground v.1.15,2013-01-01 20:50:00,
2013-01-01 14:54:00,13.6,1.2,30.14,NNW,327,8.0,15.0,57,0.00,,,0.00,Wunderground v.1.15,2013-01-01 20:54:00,
2013-01-01 14:55:00,13.6,1.2,30.14,NW,319,12.0,15.0,57,0.00,,,0.00,Wunderground v.1.15,2013-01-01 20:55:00,
2013-01-01 14:56:00,13.8,1.4,30.14,NNW,335,14.0,15.0,57,0.00,,,0.00,Wunderground v.1.15,2013-01-01 20:56:00,
2013-01-01 15:00:00,13.8,1.4,30.14,NW,322,8.0,11.0,57,0.00,,,0.00,Wunderground v.1.15,2013-01-01 21:00:00,
2013-01-01 15:01:00,13.8,1.4,30.14,NNW,342,5.0,11.0,57,0.00,,,0.00,Wunderground v.1.15,2013-01-01 21:01:00,
2013-01-01 15:02:00,13.8,1.4,30.14,NNW,330,6.0,11.0,57,0.00,,,0.00,Wunderground v.1.15,2013-01-01 21:02:00,
2013-01-01 15:05:00,13.8,1.4,30.14,NW,322,11.0,12.0,57,0.00,,,0.00,Wunderground v.1.15,2013-01-01 21:05:00,
2013-01-01 15:06:00,13.8,1.7,30.14,North,349,11.0,13.0,58,0.00,,,0.00,Wunderground v.1.15,2013-01-01 21:06:00,
2013-01-01 15:07:00,13.8,1.4,30.14,NW,323,5.0,13.0,57,0.00,,,0.00,Wunderground v.1.15,2013-01-01 21:07:00,
2013-01-01 15:10:00,13.8,1.4,30.13,NW,308,11.0,12.0,57,0.00,,,0.00,Wunderground v.1.15,2013-01-01 21:10:00,
2013-01-01 15:11:00,13.8,1.7,30.13,NNW,328,7.0,12.0,58,0.00,,,0.00,Wunderground v.1.15,2013-01-01 21:11:00,
2013-01-01 15:14:00,13.8,1.7,30.13,NW,315,9.0,12.0,58,0.00,,,0.00,Wunderground v.1.15,2013-01-01 21:14:00,
2013-01-01 15:15:00,13.8,1.7,30.13,NNW,330,8.0,12.0,58,0.00,,,0.00,Wunderground v.1.15,2013-01-01 21:15:00,
2013-01-01 15:18:00,13.6,1.5,30.13,NW,305,6.0,15.0,58,0.00,,,0.00,Wunderground v.1.15,2013-01-01 21:18:00,
2013-01-01 15:19:00,13.6,1.5,30.13,NW,314,9.0,9.0,58,0.00,,,0.00,Wunderground v.1.15,2013-01-01 21:19:00,
2013-01-01 15:20:00,13.6,1.5,30.13,NNW,328,14.0,14.0,58,0.00,,,0.00,Wunderground v.1.15,2013-01-01 21:20:00,
2013-01-01 15:22:00,13.6,1.5,30.13,NNW,336,10.0,14.0,58,0.00,,,0.00,Wunderground v.1.15,2013-01-01 21:22:00,
2013-01-01 15:25:00,13.6,1.2,30.13,NW,325,7.0,14.0,57,0.00,,,0.00,Wunderground v.1.15,2013-01-01 21:25:00,
2013-01-01 15:26:00,13.5,1.1,30.13,NW,321,7.0,14.0,57,0.00,,,0.00,Wunderground v.1.15,2013-01-01 21:26:00,
2013-01-01 15:27:00,13.5,1.1,30.13,NNW,328,7.0,14.0,57,0.00,,,0.00,Wunderground v.1.15,2013-01-01 21:27:00,
2013-01-01 15:30:00,13.5,1.4,30.13,WNW,299,9.0,14.0,58,0.00,,,0.00,Wunderground v.1.15,2013-01-01 21:30:00,
2013-01-01 15:31:00,13.5,1.4,30.13,NW,325,6.0,14.0,58,0.00,,,0.00,Wunderground v.1.15,2013-01-01 21:31:00,
2013-01-01 15:32:00,13.5,1.4,30.13,NNW,330,12.0,14.0,58,0.00,,,0.00,Wunderground v.1.15,2013-01-01 21:32:00,
2013-01-01 15:35:00,13.5,1.4,30.13,NNW,327,7.0,14.0,58,0.00,,,0.00,Wunderground v.1.15,2013-01-01 21:35:00,
2013-01-01 15:36:00,13.5,1.4,30.13,NW,319,7.0,14.0,58,0.00,,,0.00,Wunderground v.1.15,2013-01-01 21:36:00,
2013-01-01 15:40:00,13.3,0.9,30.13,NW,310,5.0,9.0,57,0.00,,,0.00,Wunderground v.1.15,2013-01-01 21:40:00,
2013-01-01 15:41:00,13.3,1.3,30.13,NW,313,4.0,9.0,58,0.00,,,0.00,Wunderground v.1.15,2013-01-01 21:41:00,
2013-01-01 15:44:00,13.1,0.7,30.13,NW,307,4.0,9.0,57,0.00,,,0.00,Wunderground v.1.15,2013-01-01 21:44:00,
2013-01-01 15:45:00,13.1,1.1,30.13,NW,307,6.0,9.0,58,0.00,,,0.00,Wunderground v.1.15,2013-01-01 21:45:00,
2013-01-01 15:46:00,13.1,1.1,30.13,WNW,285,9.0,10.0,58,0.00,,,0.00,Wunderground v.1.15,2013-01-01 21:46:00,
2013-01-01 15:51:00,12.9,0.9,30.13,NW,321,10.0,12.0,58,0.00,,,0.00,Wunderground v.1.15,2013-01-01 21:51:00,
2013-01-01 15:55:00,12.8,0.8,30.13,NW,314,12.0,12.0,58,0.00,,,0.00,Wunderground v.1.15,2013-01-01 21:55:00,
2013-01-01 15:56:00,12.8,0.8,30.13,NNW,329,7.0,12.0,58,0.00,,,0.00,Wunderground v.1.15,2013-01-01 21:56:00,
2013-01-01 15:57:00,12.6,0.6,30.13,NNW,348,7.0,12.0,58,0.00,,,0.00,Wunderground v.1.15,2013-01-01 21:57:00,
2013-01-01 16:00:00,12.6,0.6,30.13,NW,304,6.0,9.0,58,0.00,,,0.00,Wunderground v.1.15,2013-01-01 22:00:00,
2013-01-01 16:01:00,12.6,0.6,30.13,NW,321,6.0,10.0,58,0.00,,,0.00,Wunderground v.1.15,2013-01-01 22:01:00,
2013-01-01 16:04:00,12.6,0.6,30.13,NW,308,10.0,10.0,58,0.00,,,0.00,Wunderground v.1.15,2013-01-01 22:04:00,
2013-01-01 16:05:00,12.6,0.6,30.13,NW,307,7.0,12.0,58,0.00,,,0.00,Wunderground v.1.15,2013-01-01 22:05:00,
2013-01-01 16:07:00,12.4,0.4,30.13,NW,318,12.0,12.0,58,0.00,,,0.00,Wunderground v.1.15,2013-01-01 22:07:00,
2013-01-01 16:10:00,12.4,0.4,30.13,NW,319,10.0,12.0,58,0.00,,,0.00,Wunderground v.1.15,2013-01-01 22:10:00,
2013-01-01 16:15:00,12.3,0.7,30.13,WNW,295,11.0,12.0,59,0.00,,,0.00,Wunderground v.1.15,2013-01-01 22:15:00,
2013-01-01 16:16:00,12.3,0.7,30.13,NW,308,13.0,13.0,59,0.00,,,0.00,Wunderground v.1.15,2013-01-01 22:16:00,
2013-01-01 16:19:00,11.9,-0.1,30.13,NW,315,6.0,13.0,58,0.00,,,0.00,Wunderground v.1.15,2013-01-01 22:19:00,
2013-01-01 16:21:00,11.9,-0.1,30.13,NW,307,10.0,12.0,58,0.00,,,0.00,Wunderground v.1.15,2013-01-01 22:21:00,
2013-01-01 16:22:00,11.9,-0.1,30.13,NW,304,9.0,12.0,58,0.00,,,0.00,Wunderground v.1.15,2013-01-01 22:22:00,
2013-01-01 16:24:00,11.7,-0.3,30.13,NW,309,10.0,12.0,58,0.00,,,0.00,Wunderground v.1.15,2013-01-01 22:24:00,
2013-01-01 16:26:00,11.6,-0.3,30.13,NW,320,9.0,12.0,58,0.00,,,0.00,Wunderground v.1.15,2013-01-01 22:26:00,
2013-01-01 16:28:00,11.6,-0.3,30.13,NW,310,6.0,12.0,58,0.00,,,0.00,Wunderground v.1.15,2013-01-01 22:28:00,
2013-01-01 16:30:00,11.4,-0.2,30.13,WNW,300,8.0,9.0,59,0.00,,,0.00,Wunderground v.1.15,2013-01-01 22:30:00,
2013-01-01 16:31:00,11.4,-0.2,30.13,NW,314,7.0,9.0,59,0.00,,,0.00,Wunderground v.1.15,2013-01-01 22:31:00,
2013-01-01 16:32:00,11.2,-0.4,30.13,NNW,333,9.0,9.0,59,0.00,,,0.00,Wunderground v.1.15,2013-01-01 22:32:00,
2013-01-01 16:35:00,11.1,-0.5,30.13,NW,322,10.0,10.0,59,0.00,,,0.00,Wunderground v.1.15,2013-01-01 22:35:00,
2013-01-01 16:36:00,11.1,-0.5,30.13,NW,309,8.0,12.0,59,0.00,,,0.00,Wunderground v.1.15,2013-01-01 22:36:00,
2013-01-01 16:37:00,11.1,-0.5,30.13,NW,311,10.0,12.0,59,0.00,,,0.00,Wunderground v.1.15,2013-01-01 22:37:00,
2013-01-01 16:40:00,10.9,-0.3,30.13,NW,315,9.0,9.0,60,0.00,,,0.00,Wunderground v.1.15,2013-01-01 22:40:00,
2013-01-01 16:42:00,10.9,-0.3,30.13,NNW,335,10.0,10.0,60,0.00,,,0.00,Wunderground v.1.15,2013-01-01 22:42:00,
2013-01-01 16:44:00,10.7,-0.5,30.13,NNW,330,8.0,10.0,60,0.00,,,0.00,Wunderground v.1.15,2013-01-01 22:44:00,
2013-01-01 16:45:00,10.7,-0.5,30.13,NW,326,10.0,11.0,60,0.00,,,0.00,Wunderground v.1.15,2013-01-01 22:45:00,
2013-01-01 16:47:00,10.5,-0.7,30.13,NW,322,11.0,12.0,60,0.00,,,0.00,Wunderground v.1.15,2013-01-01 22:47:00,
2013-01-01 16:50:00,10.5,-0.7,30.13,NW,321,7.0,8.0,60,0.00,,,0.00,Wunderground v.1.15,2013-01-01 22:50:00,
2013-01-01 16:51:00,10.5,-0.7,30.13,NW,309,9.0,9.0,60,0.00,,,0.00,Wunderground v.1.15,2013-01-01 22:51:00,
2013-01-01 16:53:00,10.5,-0.3,30.13,NW,311,5.0,9.0,61,0.00,,,0.00,Wunderground v.1.15,2013-01-01 22:53:00,
2013-01-01 16:55:00,10.4,-0.4,30.13,NW,313,5.0,9.0,61,0.00,,,0.00,Wunderground v.1.15,2013-01-01 22:55:00,
2013-01-01 16:56:00,10.4,-0.4,30.13,NW,321,6.0,9.0,61,0.00,,,0.00,Wunderground v.1.15,2013-01-01 22:56:00,
2013-01-01 17:00:00,10.2,-0.6,30.13,WNW,302,4.0,6.0,61,0.00,,,0.00,Wunderground v.1.15,2013-01-01 23:00:00,
2013-01-01 17:01:00,10.2,-0.6,30.13,WNW,302,5.0,6.0,61,0.00,,,0.00,Wunderground v.1.15,2013-01-01 23:01:00,
2013-01-01 17:02:00,10.2,-0.2,30.13,WNW,302,2.0,6.0,62,0.00,,,0.00,Wunderground v.1.15,2013-01-01 23:02:00,
2013-01-01 17:05:00,10.0,-0.4,30.13,WNW,302,5.0,6.0,62,0.00,,,0.00,Wunderground v.1.15,2013-01-01 23:05:00,
2013-01-01 17:06:00,10.0,-0.4,30.13,WNW,300,2.0,6.0,62,0.00,,,0.00,Wunderground v.1.15,2013-01-01 23:06:00,
2013-01-01 17:07:00,10.0,-0.4,30.13,WNW,297,6.0,6.0,62,0.00,,,0.00,Wunderground v.1.15,2013-01-01 23:07:00,
2013-01-01 17:08:00,10.0,-0.4,30.13,WNW,297,3.0,6.0,62,0.00,,,0.00,Wunderground v.1.15,2013-01-01 23:08:00,
2013-01-01 17:11:00,10.0,-0.4,30.13,WNW,300,5.0,5.0,62,0.00,,,0.00,Wunderground v.1.15,2013-01-01 23:11:00,
2013-01-01 17:12:00,10.0,-0.4,30.13,WNW,300,4.0,5.0,62,0.00,,,0.00,Wunderground v.1.15,2013-01-01 23:12:00,
2013-01-01 17:15:00,10.0,-0.4,30.13,NW,304,4.0,5.0,62,0.00,,,0.00,Wunderground v.1.15,2013-01-01 23:15:00,
2013-01-01 17:16:00,10.0,-0.4,30.13,WNW,303,4.0,5.0,62,0.00,,,0.00,Wunderground v.1.15,2013-01-01 23:16:00,
2013-01-01 17:17:00,10.0,-0.4,30.13,WNW,303,4.0,5.0,62,0.00,,,0.00,Wunderground v.1.15,2013-01-01 23:17:00,
2013-01-01 17:20:00,9.9,-0.5,30.13,WNW,302,3.0,4.0,62,0.00,,,0.00,Wunderground v.1.15,2013-01-01 23:20:00,
2013-01-01 17:21:00,9.9,-0.2,30.13,WNW,302,4.0,5.0,63,0.00,,,0.00,Wunderground v.1.15,2013-01-01 23:21:00,
2013-01-01 17:23:00,9.9,-0.2,30.13,WNW,302,4.0,5.0,63,0.00,,,0.00,Wunderground v.1.15,2013-01-01 23:23:00,
2013-01-01 17:25:00,9.9,-0.2,30.13,WNW,290,5.0,6.0,63,0.00,,,0.00,Wunderground v.1.15,2013-01-01 23:25:00,
2013-01-01 17:26:00,9.9,-0.2,30.13,WNW,290,5.0,6.0,63,0.00,,,0.00,Wunderground v.1.15,2013-01-01 23:26:00,
2013-01-01 17:31:00,9.7,-0.4,30.13,WNW,284,6.0,6.0,63,0.00,,,0.00,Wunderground v.1.15,2013-01-01 23:31:00,
2013-01-01 17:34:00,9.7,-0.4,30.13,WNW,289,4.0,6.0,63,0.00,,,0.00,Wunderground v.1.15,2013-01-01 23:34:00,
2013-01-01 17:36:00,9.7,-0.4,30.13,WNW,290,5.0,6.0,63,0.00,,,0.00,Wunderground v.1.15,2013-01-01 23:36:00,
2013-01-01 17:39:00,9.7,-0.4,30.13,WNW,294,4.0,5.0,63,0.00,,,0.00,Wunderground v.1.15,2013-01-01 23:39:00,
2013-01-01 17:40:00,9.7,-0.4,30.13,WNW,293,5.0,5.0,63,0.00,,,0.00,Wunderground v.1.15,2013-01-01 23:40:00,
2013-01-01 17:41:00,9.7,0.0,30.13,WNW,292,2.0,6.0,64,0.00,,,0.00,Wunderground v.1.15,2013-01-01 23:41:00,
2013-01-01 17:42:00,9.7,0.0,30.13,WNW,294,3.0,6.0,64,0.00,,,0.00,Wunderground v.1.15,2013-01-01 23:42:00,
2013-01-01 17:45:00,9.5,-0.2,30.13,WNW,297,4.0,6.0,64,0.00,,,0.00,Wunderground v.1.15,2013-01-01 23:45:00,
2013-01-01 17:50:00,9.5,-0.2,30.13,WNW,291,5.0,5.0,64,0.00,,,0.00,Wunderground v.1.15,2013-01-01 23:50:00,
2013-01-01 17:51:00,9.3,-0.4,30.13,WNW,290,5.0,5.0,64,0.00,,,0.00,Wunderground v.1.15,2013-01-01 23:51:00,
2013-01-01 17:55:00,9.3,-0.4,30.13,West,276,5.0,6.0,64,0.00,,,0.00,Wunderground v.1.15,2013-01-01 23:55:00,
2013-01-01 17:56:00,9.3,-0.4,30.13,West,276,5.0,6.0,64,0.00,,,0.00,Wunderground v.1.15,2013-01-01 23:56:00,
2013-01-01 18:00:00,9.2,-0.5,30.13,WNW,288,6.0,6.0,64,0.00,,,0.00,Wunderground v.1.15,2013-01-02 00:00:00,
2013-01-01 18:01:00,9.2,-0.2,30.13,WNW,282,5.0,6.0,65,0.00,,,0.00,Wunderground v.1.15,2013-01-02 00:01:00,
2013-01-01 18:04:00,9.2,-0.2,30.13,WNW,290,6.0,6.0,65,0.00,,,0.00,Wunderground v.1.15,2013-01-02 00:04:00,
2013-01-01 18:05:00,9.2,-0.2,30.13,WNW,283,6.0,7.0,65,0.00,,,0.00,Wunderground v.1.15,2013-01-02 00:05:00,
2013-01-01 18:06:00,9.2,-0.2,30.13,WNW,282,4.0,7.0,65,0.00,,,0.00,Wunderground v.1.15,2013-01-02 00:06:00,
2013-01-01 18:07:00,9.2,-0.2,30.13,West,276,4.0,7.0,65,0.00,,,0.00,Wunderground v.1.15,2013-01-02 00:07:00,
2013-01-01 18:10:00,9.0,-0.4,30.13,West,267,5.0,6.0,65,0.00,,,0.00,Wunderground v.1.15,2013-01-02 00:10:00,
2013-01-01 18:11:00,9.0,-0.4,30.13,West,266,3.0,6.0,65,0.00,,,0.00,Wunderground v.1.15,2013-01-02 00:11:00,
2013-01-01 18:12:00,9.0,-0.4,30.13,West,266,4.0,6.0,65,0.00,,,0.00,Wunderground v.1.15,2013-01-02 00:12:00,
2013-01-01 18:15:00,9.0,-0.4,30.13,West,265,4.0,6.0,65,0.00,,,0.00,Wunderground v.1.15,2013-01-02 00:15:00,
2013-01-01 18:16:00,9.0,-0.4,30.13,WSW,257,6.0,6.0,65,0.00,,,0.00,Wunderground v.1.15,2013-01-02 00:16:00,
2013-01-01 18:17:00,9.0,-0.4,30.13,WSW,253,5.0,6.0,65,0.00,,,0.00,Wunderground v.1.15,2013-01-02 00:17:00,
2013-01-01 18:20:00,9.0,-0.4,30.13,West,264,7.0,7.0,65,0.00,,,0.00,Wunderground v.1.15,2013-01-02 00:20:00,
2013-01-01 18:22:00,9.0,-0.1,30.13,WSW,258,6.0,7.0,66,0.00,,,0.00,Wunderground v.1.15,2013-01-02 00:22:00,
2013-01-01 18:25:00,8.8,-0.3,30.14,West,280,7.0,7.0,66,0.00,,,0.00,Wunderground v.1.15,2013-01-02 00:25:00,
2013-01-01 18:29:00,8.6,-0.1,30.14,WSW,255,6.0,6.0,67,0.00,,,0.00,Wunderground v.1.15,2013-01-02 00:29:00,
2013-01-01 18:30:00,8.6,-0.1,30.14,West,261,5.0,6.0,67,0.00,,,0.00,Wunderground v.1.15,2013-01-02 00:30:00,
2013-01-01 18:31:00,8.6,-0.1,30.14,West,262,5.0,6.0,67,0.00,,,0.00,Wunderground v.1.15,2013-01-02 00:31:00,
2013-01-01 18:34:00,8.4,-0.3,30.14,WSW,258,3.0,8.0,67,0.00,,,0.00,Wunderground v.1.15,2013-01-02 00:34:00,
2013-01-01 18:36:00,8.4,-0.3,30.14,WSW,250,4.0,8.0,67,0.00,,,0.00,Wunderground v.1.15,2013-01-02 00:36:00,
2013-01-01 18:37:00,8.4,0.0,30.14,West,266,4.0,8.0,68,0.00,,,0.00,Wunderground v.1.15,2013-01-02 00:37:00,
2013-01-01 18:41:00,8.3,-0.1,30.14,West,273,6.0,6.0,68,0.00,,,0.00,Wunderground v.1.15,2013-01-02 00:41:00,
2013-01-01 18:44:00,8.3,-0.1,30.14,West,263,4.0,6.0,68,0.00,,,0.00,Wunderground v.1.15,2013-01-02 00:44:00,
2013-01-01 18:46:00,8.3,0.2,30.14,WSW,257,6.0,6.0,69,0.00,,,0.00,Wunderground v.1.15,2013-01-02 00:46:00,
2013-01-01 18:48:00,8.3,0.2,30.14,West,261,6.0,6.0,69,0.00,,,0.00,Wunderground v.1.15,2013-01-02 00:48:00,
2013-01-01 18:50:00,8.1,0.0,30.14,WSW,248,5.0,5.0,69,0.00,,,0.00,Wunderground v.1.15,2013-01-02 00:50:00,
2013-01-01 18:52:00,8.1,0.0,30.14,West,266,3.0,8.0,69,0.00,,,0.00,Wunderground v.1.15,2013-01-02 00:52:00,
2013-01-01 18:55:00,8.3,0.2,30.14,West,281,5.0,8.0,69,0.00,,,0.00,Wunderground v.1.15,2013-01-02 00:55:00,
2013-01-01 18:56:00,8.3,0.2,30.14,West,274,5.0,8.0,69,0.00,,,0.00,Wunderground v.1.15,2013-01-02 00:56:00,
2013-01-01 19:00:00,8.1,0.0,30.14,West,271,5.0,6.0,69,0.00,,,0.00,Wunderground v.1.15,2013-01-02 01:00:00,
2013-01-01 19:01:00,8.1,0.0,30.14,West,269,7.0,8.0,69,0.00,,,0.00,Wunderground v.1.15,2013-01-02 01:01:00,
2013-01-01 19:02:00,8.1,0.0,30.14,West,274,6.0,9.0,69,0.00,,,0.00,Wunderground v.1.15,2013-01-02 01:02:00,
2013-01-01 19:06:00,8.1,0.0,30.14,West,270,5.0,10.0,69,0.00,,,0.00,Wunderground v.1.15,2013-01-02 01:06:00,
2013-01-01 19:07:00,8.1,0.0,30.14,West,267,7.0,10.0,69,0.00,,,0.00,Wunderground v.1.15,2013-01-02 01:07:00,
2013-01-01 19:09:00,8.1,0.0,30.14,West,275,8.0,8.0,69,0.00,,,0.00,Wunderground v.1.15,2013-01-02 01:09:00,
2013-01-01 19:12:00,8.1,0.3,30.14,West,267,11.0,11.0,70,0.00,,,0.00,Wunderground v.1.15,2013-01-02 01:12:00,
2013-01-01 19:13:00,8.1,0.3,30.14,West,281,8.0,11.0,70,0.00,,,0.00,Wunderground v.1.15,2013-01-02 01:13:00,
2013-01-01 19:16:00,8.1,0.3,30.14,West,276,4.0,11.0,70,0.00,,,0.00,Wunderground v.1.15,2013-01-02 01:16:00,
2013-01-01 19:17:00,8.1,0.3,30.14,West,273,4.0,11.0,70,0.00,,,0.00,Wunderground v.1.15,2013-01-02 01:17:00,
2013-01-01 19:20:00,8.1,0.3,30.14,West,269,7.0,7.0,70,0.00,,,0.00,Wunderground v.1.15,2013-01-02 01:20:00,
2013-01-01 19:21:00,8.1,0.3,30.14,West,277,6.0,7.0,70,0.00,,,0.00,Wunderground v.1.15,2013-01-02 01:21:00,
2013-01-01 19:24:00,8.1,0.3,30.14,West,265,9.0,9.0,70,0.00,,,0.00,Wunderground v.1.15,2013-01-02 01:24:00,
2013-01-01 19:25:00,8.1,0.3,30.14,West,269,9.0,9.0,70,0.00,,,0.00,Wunderground v.1.15,2013-01-02 01:25:00,
2013-01-01 19:26:00,7.9,0.1,30.14,West,268,6.0,9.0,70,0.00,,,0.00,Wunderground v.1.15,2013-01-02 01:26:00,
2013-01-01 19:27:00,7.9,0.1,30.14,West,265,4.0,9.0,70,0.00,,,0.00,Wunderground v.1.15,2013-01-02 01:27:00,
2013-01-01 19:30:00,7.9,0.1,30.14,West,272,7.0,7.0,70,0.00,,,0.00,Wunderground v.1.15,2013-01-02 01:30:00,
2013-01-01 19:31:00,7.9,0.1,30.14,West,265,4.0,7.0,70,0.00,,,0.00,Wunderground v.1.15,2013-01-02 01:31:00,
2013-01-01 19:32:00,7.9,0.1,30.14,West,270,6.0,7.0,70,0.00,,,0.00,Wunderground v.1.15,2013-01-02 01:32:00,
2013-01-01 19:35:00,7.9,0.1,30.14,West,272,5.0,7.0,70,0.00,,,0.00,Wunderground v.1.15,2013-01-02 01:35:00,
2013-01-01 19:36:00,7.9,0.1,30.14,West,267,5.0,7.0,70,0.00,,,0.00,Wunderground v.1.15,2013-01-02 01:36:00,
2013-01-01 19:41:00,7.9,0.1,30.14,WSW,256,5.0,7.0,70,0.00,,,0.00,Wunderground v.1.15,2013-01-02 01:41:00,
2013-01-01 19:42:00,7.9,0.1,30.14,West,263,4.0,7.0,70,0.00,,,0.00,Wunderground v.1.15,2013-01-02 01:42:00,
2013-01-01 19:47:00,7.9,0.1,30.14,WSW,253,5.0,7.0,70,0.00,,,0.00,Wunderground v.1.15,2013-01-02 01:47:00,
2013-01-01 19:50:00,7.7,-0.1,30.14,West,271,4.0,5.0,70,0.00,,,0.00,Wunderground v.1.15,2013-01-02 01:50:00,
2013-01-01 19:54:00,7.7,-0.1,30.14,West,270,9.0,9.0,70,0.00,,,0.00,Wunderground v.1.15,2013-01-02 01:54:00,
2013-01-01 19:55:00,7.7,-0.1,30.14,WNW,284,6.0,9.0,70,0.00,,,0.00,Wunderground v.1.15,2013-01-02 01:55:00,
2013-01-01 19:57:00,7.7,-0.1,30.14,WNW,290,8.0,9.0,70,0.00,,,0.00,Wunderground v.1.15,2013-01-02 01:57:00,
2013-01-01 19:59:00,7.7,-0.1,30.14,West,281,5.0,6.0,70,0.00,,,0.00,Wunderground v.1.15,2013-01-02 01:59:00,
2013-01-01 20:00:00,7.6,-0.1,30.14,West,271,6.0,7.0,70,0.00,,,0.00,Wunderground v.1.15,2013-01-02 02:00:00,
2013-01-01 20:02:00,7.6,-0.1,30.14,West,278,7.0,7.0,70,0.00,,,0.00,Wunderground v.1.15,2013-01-02 02:02:00,
2013-01-01 20:05:00,7.4,0.0,30.14,West,271,6.0,7.0,71,0.00,,,0.00,Wunderground v.1.15,2013-01-02 02:05:00,
2013-01-01 20:06:00,7.6,0.2,30.14,West,268,3.0,7.0,71,0.00,,,0.00,Wunderground v.1.15,2013-01-02 02:06:00,
2013-01-01 20:10:00,7.6,0.2,30.13,West,263,5.0,5.0,71,0.00,,,0.00,Wunderground v.1.15,2013-01-02 02:10:00,
2013-01-01 20:11:00,7.6,0.2,30.13,West,263,5.0,5.0,71,0.00,,,0.00,Wunderground v.1.15,2013-01-02 02:11:00,
2013-01-01 20:12:00,7.6,0.2,30.13,West,270,4.0,6.0,71,0.00,,,0.00,Wunderground v.1.15,2013-01-02 02:12:00,
2013-01-01 20:16:00,7.6,0.2,30.13,WNW,282,6.0,6.0,71,0.00,,,0.00,Wunderground v.1.15,2013-01-02 02:16:00,
2013-01-01 20:17:00,7.6,0.2,30.13,West,281,5.0,6.0,71,0.00,,,0.00,Wunderground v.1.15,2013-01-02 02:17:00,
2013-01-01 20:20:00,7.6,0.2,30.13,WNW,287,5.0,7.0,71,0.00,,,0.00,Wunderground v.1.15,2013-01-02 02:20:00,
2013-01-01 20:21:00,7.6,-0.1,30.13,WNW,283,5.0,7.0,70,0.00,,,0.00,Wunderground v.1.15,2013-01-02 02:21:00,
2013-01-01 20:22:00,7.6,-0.1,30.13,WNW,283,5.0,7.0,70,0.00,,,0.00,Wunderground v.1.15,2013-01-02 02:22:00,
2013-01-01 20:26:00,7.4,-0.3,30.12,West,278,4.0,7.0,70,0.00,,,0.00,Wunderground v.1.15,2013-01-02 02:26:00,
2013-01-01 20:27:00,7.4,-0.3,30.12,West,276,6.0,7.0,70,0.00,,,0.00,Wunderground v.1.15,2013-01-02 02:27:00,
2013-01-01 20:31:00,7.4,0.0,30.12,West,271,5.0,7.0,71,0.00,,,0.00,Wunderground v.1.15,2013-01-02 02:31:00,
2013-01-01 20:32:00,7.4,0.0,30.12,West,278,5.0,7.0,71,0.00,,,0.00,Wunderground v.1.15,2013-01-02 02:32:00,
2013-01-01 20:35:00,7.2,-0.2,30.12,WNW,284,6.0,7.0,71,0.00,,,0.00,Wunderground v.1.15,2013-01-02 02:35:00,
2013-01-01 20:36:00,7.2,-0.2,30.12,West,281,6.0,7.0,71,0.00,,,0.00,Wunderground v.1.15,2013-01-02 02:36:00,
2013-01-01 20:37:00,7.2,-0.2,30.12,WNW,293,6.0,7.0,71,0.00,,,0.00,Wunderground v.1.15,2013-01-02 02:37:00,
2013-01-01 20:40:00,7.2,-0.2,30.12,WNW,291,5.0,6.0,71,0.00,,,0.00,Wunderground v.1.15,2013-01-02 02:40:00,
2013-01-01 20:41:00,7.2,-0.2,30.12,WNW,295,6.0,6.0,71,0.00,,,0.00,Wunderground v.1.15,2013-01-02 02:41:00,
2013-01-01 20:44:00,7.0,-0.4,30.12,WNW,289,5.0,6.0,71,0.00,,,0.00,Wunderground v.1.15,2013-01-02 02:44:00,
2013-01-01 20:46:00,7.0,-0.4,30.12,West,276,6.0,6.0,71,0.00,,,0.00,Wunderground v.1.15,2013-01-02 02:46:00,
2013-01-01 20:47:00,7.0,-0.4,30.12,West,277,6.0,6.0,71,0.00,,,0.00,Wunderground v.1.15,2013-01-02 02:47:00,
2013-01-01 20:49:00,6.9,-0.5,30.12,West,280,6.0,6.0,71,0.00,,,0.00,Wunderground v.1.15,2013-01-02 02:49:00,
2013-01-01 20:51:00,6.9,-0.2,30.12,West,278,4.0,6.0,72,0.00,,,0.00,Wunderground v.1.15,2013-01-02 02:51:00,
2013-01-01 20:52:00,6.9,-0.2,30.12,West,273,6.0,6.0,72,0.00,,,0.00,Wunderground v.1.15,2013-01-02 02:52:00,
2013-01-01 20:55:00,7.0,-0.1,30.12,West,278,6.0,6.0,72,0.00,,,0.00,Wunderground v.1.15,2013-01-02 02:55:00,
2013-01-01 20:56:00,7.0,-0.1,30.12,West,275,6.0,7.0,72,0.00,,,0.00,Wunderground v.1.15,2013-01-02 02:56:00,
2013-01-01 20:59:00,6.9,-0.2,30.12,West,281,6.0,6.0,72,0.00,,,0.00,Wunderground v.1.15,2013-01-02 02:59:00,
2013-01-01 21:00:00,6.9,-0.2,30.12,WNW,288,5.0,6.0,72,0.00,,,0.00,Wunderground v.1.15,2013-01-02 03:00:00,
2013-01-01 21:01:00,6.9,-0.2,30.12,WNW,284,6.0,6.0,72,0.00,,,0.00,Wunderground v.1.15,2013-01-02 03:01:00,
2013-01-01 21:05:00,6.9,-0.2,30.12,WNW,295,5.0,6.0,72,0.00,,,0.00,Wunderground v.1.15,2013-01-02 03:05:00,
2013-01-01 21:06:00,6.9,-0.2,30.12,WNW,295,3.0,6.0,72,0.00,,,0.00,Wunderground v.1.15,2013-01-02 03:06:00,
2013-01-01 21:07:00,6.9,-0.2,30.12,WNW,295,5.0,6.0,72,0.00,,,0.00,Wunderground v.1.15,2013-01-02 03:07:00,
2013-01-01 21:10:00,6.7,-0.4,30.12,WNW,287,5.0,6.0,72,0.00,,,0.00,Wunderground v.1.15,2013-01-02 03:10:00,
2013-01-01 21:11:00,6.7,-0.4,30.12,WNW,282,6.0,6.0,72,0.00,,,0.00,Wunderground v.1.15,2013-01-02 03:11:00,
2013-01-01 21:12:00,6.7,-0.4,30.12,West,276,6.0,6.0,72,0.00,,,0.00,Wunderground v.1.15,2013-01-02 03:12:00,
2013-01-01 21:15:00,6.5,-0.6,30.12,West,271,5.0,6.0,72,0.00,,,0.00,Wunderground v.1.15,2013-01-02 03:15:00,
2013-01-01 21:17:00,6.5,-0.6,30.12,West,274,5.0,7.0,72,0.00,,,0.00,Wunderground v.1.15,2013-01-02 03:17:00,
2013-01-01 21:20:00,6.5,-0.6,30.12,West,269,5.0,6.0,72,0.00,,,0.00,Wunderground v.1.15,2013-01-02 03:20:00,
2013-01-01 21:22:00,6.5,-0.6,30.12,West,278,4.0,7.0,72,0.00,,,0.00,Wunderground v.1.15,2013-01-02 03:22:00,
2013-01-01 21:25:00,6.7,-0.4,30.11,West,273,6.0,7.0,72,0.00,,,0.00,Wunderground v.1.15,2013-01-02 03:25:00,
2013-01-01 21:26:00,6.7,-0.4,30.11,West,272,5.0,7.0,72,0.00,,,0.00,Wunderground v.1.15,2013-01-02 03:26:00,
2013-01-01 21:27:00,6.7,-0.4,30.11,West,278,5.0,7.0,72,0.00,,,0.00,Wunderground v.1.15,2013-01-02 03:27:00,
2013-01-01 21:29:00,6.7,-0.4,30.11,West,274,5.0,7.0,72,0.00,,,0.00,Wunderground v.1.15,2013-01-02 03:29:00,
2013-01-01 21:30:00,6.7,-0.4,30.11,WNW,288,5.0,6.0,72,0.00,,,0.00,Wunderground v.1.15,2013-01-02 03:30:00,
2013-01-01 21:31:00,6.7,-0.4,30.11,WNW,282,5.0,6.0,72,0.00,,,0.00,Wunderground v.1.15,2013-01-02 03:31:00,
2013-01-01 21:32:00,6.7,-0.4,30.11,West,274,5.0,6.0,72,0.00,,,0.00,Wunderground v.1.15,2013-01-02 03:32:00,
2013-01-01 21:35:00,6.9,-0.2,30.11,WNW,285,4.0,6.0,72,0.00,,,0.00,Wunderground v.1.15,2013-01-02 03:35:00,
2013-01-01 21:36:00,6.7,-0.4,30.11,WNW,288,4.0,6.0,72,0.00,,,0.00,Wunderground v.1.15,2013-01-02 03:36:00,
2013-01-01 21:37:00,6.7,-0.4,30.11,WNW,288,4.0,6.0,72,0.00,,,0.00,Wunderground v.1.15,2013-01-02 03:37:00,
2013-01-01 21:40:00,6.7,-0.4,30.10,West,274,3.0,4.0,72,0.00,,,0.00,Wunderground v.1.15,2013-01-02 03:40:00,
2013-01-01 21:42:00,6.7,-0.4,30.10,West,272,4.0,5.0,72,0.00,,,0.00,Wunderground v.1.15,2013-01-02 03:42:00,
2013-01-01 21:43:00,6.7,-0.4,30.10,West,271,3.0,5.0,72,0.00,,,0.00,Wunderground v.1.15,2013-01-02 03:43:00,
2013-01-01 21:45:00,6.7,-0.4,30.10,West,266,3.0,5.0,72,0.00,,,0.00,Wunderground v.1.15,2013-01-02 03:45:00,
2013-01-01 21:49:00,6.7,-0.4,30.10,WSW,252,6.0,6.0,72,0.00,,,0.00,Wunderground v.1.15,2013-01-02 03:49:00,
2013-01-01 21:50:00,6.7,-0.4,30.10,WSW,253,4.0,6.0,72,0.00,,,0.00,Wunderground v.1.15,2013-01-02 03:50:00,
2013-01-01 21:55:00,6.5,-0.6,30.11,WSW,255,4.0,6.0,72,0.00,,,0.00,Wunderground v.1.15,2013-01-02 03:55:00,
2013-01-01 21:56:00,6.5,-0.6,30.11,West,264,4.0,6.0,72,0.00,,,0.00,Wunderground v.1.15,2013-01-02 03:56:00,
2013-01-01 21:58:00,6.5,-0.6,30.11,West,263,4.0,6.0,72,0.00,,,0.00,Wunderground v.1.15,2013-01-02 03:58:00,
2013-01-01 22:00:00,6.5,-0.6,30.11,West,264,4.0,5.0,72,0.00,,,0.00,Wunderground v.1.15,2013-01-02 04:00:00,
2013-01-01 22:01:00,6.5,-0.6,30.11,WSW,255,6.0,6.0,72,0.00,,,0.00,Wunderground v.1.15,2013-01-02 04:01:00,
2013-01-01 22:03:00,6.5,-0.6,30.11,WSW,253,3.0,6.0,72,0.00,,,0.00,Wunderground v.1.15,2013-01-02 04:03:00,
2013-01-01 22:05:00,6.5,-0.6,30.11,WSW,258,6.0,6.0,72,0.00,,,0.00,Wunderground v.1.15,2013-01-02 04:05:00,
2013-01-01 22:06:00,6.3,-0.8,30.11,WSW,246,5.0,7.0,72,0.00,,,0.00,Wunderground v.1.15,2013-01-02 04:06:00,
2013-01-01 22:10:00,6.3,-0.8,30.11,WSW,252,6.0,6.0,72,0.00,,,0.00,Wunderground v.1.15,2013-01-02 04:10:00,
2013-01-01 22:11:00,6.3,-0.8,30.11,West,262,6.0,6.0,72,0.00,,,0.00,Wunderground v.1.15,2013-01-02 04:11:00,
2013-01-01 22:14:00,6.1,-1.0,30.11,WNW,285,5.0,8.0,72,0.00,,,0.00,Wunderground v.1.15,2013-01-02 04:14:00,
2013-01-01 22:15:00,6.1,-1.0,30.11,West,278,7.0,8.0,72,0.00,,,0.00,Wunderground v.1.15,2013-01-02 04:15:00,
2013-01-01 22:17:00,6.1,-1.0,30.11,West,276,7.0,8.0,72,0.00,,,0.00,Wunderground v.1.15,2013-01-02 04:17:00,
2013-01-01 22:18:00,6.1,-1.0,30.11,West,271,8.0,8.0,72,0.00,,,0.00,Wunderground v.1.15,2013-01-02 04:18:00,
2013-01-01 22:21:00,6.0,-1.1,30.11,West,265,7.0,7.0,72,0.00,,,0.00,Wunderground v.1.15,2013-01-02 04:21:00,
2013-01-01 22:22:00,6.0,-1.1,30.11,West,270,5.0,7.0,72,0.00,,,0.00,Wunderground v.1.15,2013-01-02 04:22:00,
2013-01-01 22:25:00,5.8,-1.3,30.10,West,272,5.0,7.0,72,0.00,,,0.00,Wunderground v.1.15,2013-01-02 04:25:00,
2013-01-01 22:27:00,5.8,-1.3,30.10,West,262,5.0,7.0,72,0.00,,,0.00,Wunderground v.1.15,2013-01-02 04:27:00,
2013-01-01 22:29:00,5.8,-1.3,30.10,West,267,5.0,5.0,72,0.00,,,0.00,Wunderground v.1.15,2013-01-02 04:29:00,
2013-01-01 22:30:00,5.8,-1.3,30.10,West,269,5.0,6.0,72,0.00,,,0.00,Wunderground v.1.15,2013-01-02 04:30:00,
2013-01-01 22:35:00,5.6,-1.5,30.10,West,276,4.0,6.0,72,0.00,,,0.00,Wunderground v.1.15,2013-01-02 04:35:00,
2013-01-01 22:36:00,5.6,-1.5,30.10,West,271,6.0,6.0,72,0.00,,,0.00,Wunderground v.1.15,2013-01-02 04:36:00,
2013-01-01 22:37:00,5.6,-1.5,30.10,West,269,5.0,6.0,72,0.00,,,0.00,Wunderground v.1.15,2013-01-02 04:37:00,
2013-01-01 22:41:00,5.6,-1.5,30.10,West,263,3.0,6.0,72,0.00,,,0.00,Wunderground v.1.15,2013-01-02 04:41:00,
2013-01-01 22:42:00,5.6,-1.5,30.10,West,266,4.0,6.0,72,0.00,,,0.00,Wunderground v.1.15,2013-01-02 04:42:00,
2013-01-01 22:45:00,5.6,-1.5,30.10,WSW,255,2.0,6.0,72,0.00,,,0.00,Wunderground v.1.15,2013-01-02 04:45:00,
2013-01-01 22:47:00,5.6,-1.5,30.10,WSW,255,4.0,6.0,72,0.00,,,0.00,Wunderground v.1.15,2013-01-02 04:47:00,
2013-01-01 22:50:00,5.6,-1.5,30.10,WSW,258,2.0,4.0,72,0.00,,,0.00,Wunderground v.1.15,2013-01-02 04:50:00,
2013-01-01 22:51:00,5.6,-1.5,30.10,WSW,255,4.0,4.0,72,0.00,,,0.00,Wunderground v.1.15,2013-01-02 04:51:00,
2013-01-01 22:52:00,5.6,-1.5,30.10,West,264,3.0,5.0,72,0.00,,,0.00,Wunderground v.1.15,2013-01-02 04:52:00,
2013-01-01 22:56:00,5.6,-1.5,30.11,WSW,258,5.0,5.0,72,0.00,,,0.00,Wunderground v.1.15,2013-01-02 04:56:00,
2013-01-01 22:57:00,5.6,-1.5,30.11,West,262,4.0,5.0,72,0.00,,,0.00,Wunderground v.1.15,2013-01-02 04:57:00,
2013-01-01 23:00:00,5.4,-1.7,30.11,WSW,255,4.0,4.0,72,0.00,,,0.00,Wunderground v.1.15,2013-01-02 05:00:00,
2013-01-01 23:05:00,5.4,-1.4,30.11,WSW,256,6.0,6.0,73,0.00,,,0.00,Wunderground v.1.15,2013-01-02 05:05:00,
2013-01-01 23:06:00,5.4,-1.4,30.11,West,272,5.0,7.0,73,0.00,,,0.00,Wunderground v.1.15,2013-01-02 05:06:00,
2013-01-01 23:10:00,5.6,-1.2,30.11,West,271,6.0,6.0,73,0.00,,,0.00,Wunderground v.1.15,2013-01-02 05:10:00,
2013-01-01 23:12:00,5.6,-1.2,30.11,West,278,5.0,7.0,73,0.00,,,0.00,Wunderground v.1.15,2013-01-02 05:12:00,
2013-01-01 23:14:00,5.6,-1.2,30.11,West,278,4.0,7.0,73,0.00,,,0.00,Wunderground v.1.15,2013-01-02 05:14:00,
2013-01-01 23:15:00,5.4,-1.7,30.11,West,276,4.0,7.0,72,0.00,,,0.00,Wunderground v.1.15,2013-01-02 05:15:00,
2013-01-01 23:16:00,5.4,-1.7,30.11,West,271,4.0,7.0,72,0.00,,,0.00,Wunderground v.1.15,2013-01-02 05:16:00,
2013-01-01 23:20:00,5.4,-1.7,30.11,West,272,4.0,5.0,72,0.00,,,0.00,Wunderground v.1.15,2013-01-02 05:20:00,
2013-01-01 23:21:00,5.2,-1.9,30.11,WSW,254,5.0,6.0,72,0.00,,,0.00,Wunderground v.1.15,2013-01-02 05:21:00,
2013-01-01 23:22:00,5.2,-1.9,30.11,West,268,3.0,6.0,72,0.00,,,0.00,Wunderground v.1.15,2013-01-02 05:22:00,
2013-01-01 23:25:00,5.2,-1.6,30.10,West,273,4.0,6.0,73,0.00,,,0.00,Wunderground v.1.15,2013-01-02 05:25:00,
2013-01-01 23:26:00,5.4,-1.4,30.10,WSW,255,3.0,6.0,73,0.00,,,0.00,Wunderground v.1.15,2013-01-02 05:26:00,
2013-01-01 23:27:00,5.4,-1.4,30.10,WSW,255,5.0,6.0,73,0.00,,,0.00,Wunderground v.1.15,2013-01-02 05:27:00,
2013-01-01 23:30:00,5.4,-1.4,30.10,WSW,248,5.0,5.0,73,0.00,,,0.00,Wunderground v.1.15,2013-01-02 05:30:00,
2013-01-01 23:31:00,5.4,-1.4,30.10,WSW,253,4.0,5.0,73,0.00,,,0.00,Wunderground v.1.15,2013-01-02 05:31:00,
2013-01-01 23:32:00,5.4,-1.4,30.10,WSW,243,4.0,5.0,73,0.00,,,0.00,Wunderground v.1.15,2013-01-02 05:32:00,
2013-01-01 23:35:00,5.4,-1.4,30.10,WSW,255,4.0,5.0,73,0.00,,,0.00,Wunderground v.1.15,2013-01-02 05:35:00,
2013-01-01 23:37:00,5.4,-1.4,30.10,WSW,256,3.0,6.0,73,0.00,,,0.00,Wunderground v.1.15,2013-01-02 05:37:00,
2013-01-01 23:40:00,5.6,-1.2,30.10,WSW,245,4.0,5.0,73,0.00,,,0.00,Wunderground v.1.15,2013-01-02 05:40:00,
2013-01-01 23:42:00,5.6,-1.2,30.10,WSW,250,4.0,5.0,73,0.00,,,0.00,Wunderground v.1.15,2013-01-02 05:42:00,
2013-01-01 23:43:00,5.6,-1.2,30.10,WSW,242,5.0,6.0,73,0.00,,,0.00,Wunderground v.1.15,2013-01-02 05:43:00,
2013-01-01 23:46:00,5.6,-1.2,30.10,WSW,251,6.0,7.0,73,0.00,,,0.00,Wunderground v.1.15,2013-01-02 05:46:00,
2013-01-01 23:50:00,5.6,-1.2,30.10,WSW,248,6.0,7.0,73,0.00,,,0.00,Wunderground v.1.15,2013-01-02 05:50:00,
2013-01-01 23:51:00,5.6,-1.2,30.10,WSW,247,4.0,7.0,73,0.00,,,0.00,Wunderground v.1.15,2013-01-02 05:51:00,
2013-01-01 23:55:00,5.8,-1.3,30.09,WSW,250,6.0,7.0,72,0.00,,,0.00,Wunderground v.1.15,2013-01-02 05:55:00,
2013-01-01 23:56:00,5.8,-1.3,30.09,WSW,250,5.0,7.0,72,0.00,,,0.00,Wunderground v.1.15,2013-01-02 05:56:00,
2013-01-01 23:57:00,5.8,-1.3,30.09,WSW,246,7.0,7.0,72,0.00,,,0.00,Wunderground v.1.15,2013-01-02 05:57:00,
2013-01-01 23:58:00,5.8,-1.3,30.09,WSW,246,6.0,7.0,72,0.00,,,0.00,Wunderground v.1.15,2013-01-02 05:58:00,